Observation data for Tahoka on 04/26/2019      Previous  Date  Next       Current Mesonet Observations  Soil Data  Daily Summary Page  Observations in Plain Language
KTAS 260500Z 06008KT 14/11 A3018 RMK A01 T01410105  RH  079%=      5-min Rain = 0
KTAS 260501Z 06008KT 14/11 A3018 RMK A01 T01410105  RH  078%=      5-min Rain = 0
KTAS 260502Z 06008KT 14/11 A3018 RMK A01 T01410105  RH  078%=      5-min Rain = 0
KTAS 260503Z 06008KT 14/11 A3018 RMK A01 T01410105  RH  079%=      5-min Rain = 0
KTAS 260504Z 06008KT 14/11 A3018 RMK A01 T01410105  RH  079%=      5-min Rain = 0
KTAS 260505Z 06007KT 14/11 A3018 RMK A01 T01410105  RH  079%=      5-min Rain = 0
KTAS 260506Z 06007KT 14/11 A3018 RMK A01 T01410105  RH  079%=      5-min Rain = 0
KTAS 260507Z 06008KT 14/11 A3018 RMK A01 T01410105  RH  079%=      5-min Rain = 0
KTAS 260508Z 06007KT 14/11 A3018 RMK A01 T01410105  RH  079%=      5-min Rain = 0
KTAS 260509Z 06008KT 14/11 A3018 RMK A01 T01410105  RH  079%=      5-min Rain = 0
KTAS 260510Z 06008KT 14/11 A3018 RMK A01 T01420105  RH  078%=      5-min Rain = 0
KTAS 260511Z 06008KT 14/11 A3017 RMK A01 T01420105  RH  078%=      5-min Rain = 0
KTAS 260512Z 06008KT 14/11 A3017 RMK A01 T01420105  RH  078%=      5-min Rain = 0
KTAS 260513Z 06008KT 14/11 A3017 RMK A01 T01420105  RH  078%=      5-min Rain = 0
KTAS 260514Z 06008KT 14/11 A3017 RMK A01 T01430105  RH  078%=      5-min Rain = 0
KTAS 260515Z 06008KT 14/11 A3017 RMK A01 T01440105  RH  077%=      5-min Rain = 0
KTAS 260516Z 06008KT 14/11 A3017 RMK A01 T01430105  RH  077%=      5-min Rain = 0
KTAS 260517Z 06008KT 14/10 A3017 RMK A01 T01440104  RH  077%=      5-min Rain = 0
KTAS 260518Z 06009KT 14/10 A3017 RMK A01 T01430104  RH  077%=      5-min Rain = 0
KTAS 260519Z 06008KT 14/10 A3017 RMK A01 T01430104  RH  077%=      5-min Rain = 0
KTAS 260520Z 06009KT 14/10 A3017 RMK A01 T01430104  RH  077%=      5-min Rain = 0
KTAS 260521Z 06008KT 14/10 A3017 RMK A01 T01430104  RH  077%=      5-min Rain = 0
KTAS 260522Z 07008KT 14/10 A3017 RMK A01 T01420104  RH  078%=      5-min Rain = 0
KTAS 260523Z 07008KT 14/10 A3018 RMK A01 T01420104  RH  078%=      5-min Rain = 0
KTAS 260524Z 07008KT 14/10 A3018 RMK A01 T01410103  RH  078%=      5-min Rain = 0
KTAS 260525Z 07008KT 14/10 A3018 RMK A01 T01400103  RH  078%=      5-min Rain = 0
KTAS 260526Z 07008KT 14/10 A3018 RMK A01 T01400103  RH  078%=      5-min Rain = 0
KTAS 260527Z 07008KT 14/10 A3018 RMK A01 T01390103  RH  079%=      5-min Rain = 0
KTAS 260528Z 07008KT 14/10 A3018 RMK A01 T01390103  RH  078%=      5-min Rain = 0
KTAS 260529Z 07008KT 14/10 A3018 RMK A01 T01390102  RH  078%=      5-min Rain = 0
KTAS 260530Z 07008KT 14/10 A3018 RMK A01 T01400103  RH  078%=      5-min Rain = 0
KTAS 260531Z 07008KT 14/10 A3018 RMK A01 T01400102  RH  078%=      5-min Rain = 0
KTAS 260532Z 07008KT 14/10 A3018 RMK A01 T01400102  RH  078%=      5-min Rain = 0
KTAS 260533Z 07007KT 14/10 A3018 RMK A01 T01400102  RH  078%=      5-min Rain = 0
KTAS 260534Z 07007KT 14/10 A3018 RMK A01 T01390102  RH  078%=      5-min Rain = 0
KTAS 260535Z 07007KT 14/10 A3018 RMK A01 T01390102  RH  078%=      5-min Rain = 0
KTAS 260536Z 07007KT 14/10 A3018 RMK A01 T01380102  RH  079%=      5-min Rain = 0
KTAS 260537Z 08007KT 14/10 A3018 RMK A01 T01380102  RH  079%=      5-min Rain = 0
KTAS 260538Z 08007KT 14/10 A3018 RMK A01 T01370102  RH  079%=      5-min Rain = 0
KTAS 260539Z 07008KT 14/10 A3018 RMK A01 T01370102  RH  079%=      5-min Rain = 0
KTAS 260540Z 07007KT 14/10 A3018 RMK A01 T01370102  RH  079%=      5-min Rain = 0
KTAS 260541Z 07007KT 14/10 A3018 RMK A01 T01370102  RH  079%=      5-min Rain = 0
KTAS 260542Z 07007KT 14/10 A3018 RMK A01 T01370102  RH  079%=      5-min Rain = 0
KTAS 260543Z 07007KT 14/10 A3018 RMK A01 T01370102  RH  079%=      5-min Rain = 0
KTAS 260544Z 07006KT 14/10 A3018 RMK A01 T01360102  RH  080%=      5-min Rain = 0
KTAS 260545Z 07007KT 14/10 A3018 RMK A01 T01360102  RH  080%=      5-min Rain = 0
KTAS 260546Z 08007KT 14/10 A3018 RMK A01 T01360101  RH  079%=      5-min Rain = 0
KTAS 260547Z 07007KT 14/10 A3018 RMK A01 T01360101  RH  079%=      5-min Rain = 0
KTAS 260548Z 08007KT 14/10 A3018 RMK A01 T01360101  RH  080%=      5-min Rain = 0
KTAS 260549Z 07007KT 14/10 A3018 RMK A01 T01350101  RH  080%=      5-min Rain = 0
KTAS 260550Z 07007KT 14/10 A3018 RMK A01 T01350101  RH  080%=      5-min Rain = 0
KTAS 260551Z 07007KT 14/10 A3018 RMK A01 T01350101  RH  080%=      5-min Rain = 0
KTAS 260552Z 07007KT 14/10 A3018 RMK A01 T01350101  RH  080%=      5-min Rain = 0
KTAS 260553Z 07007KT 14/10 A3018 RMK A01 T01360101  RH  079%=      5-min Rain = 0
KTAS 260554Z 07007KT 14/10 A3018 RMK A01 T01360101  RH  079%=      5-min Rain = 0
KTAS 260555Z 07007KT 14/10 A3018 RMK A01 T01350101  RH  079%=      5-min Rain = 0
KTAS 260556Z 07007KT 14/10 A3019 RMK A01 T01360101  RH  079%=      5-min Rain = 0
KTAS 260557Z 07007KT 14/10 A3019 RMK A01 T01350100  RH  080%=      5-min Rain = 0
KTAS 260558Z 07007KT 14/10 A3019 RMK A01 T01350100  RH  080%=      5-min Rain = 0
KTAS 260559Z 07007KT 14/10 A3019 RMK A01 T01350100  RH  080%=      5-min Rain = 0
KTAS 260600Z 07007KT 14/10 A3019 RMK A01 T01350100  RH  080%=      5-min Rain = 0
KTAS 260601Z 07007KT 14/10 A3019 RMK A01 T01350100  RH  080%=      5-min Rain = 0
KTAS 260602Z 07007KT 14/10 A3019 RMK A01 T01350100  RH  080%=      5-min Rain = 0
KTAS 260603Z 07007KT 13/10 A3019 RMK A01 T01340100  RH  080%=      5-min Rain = 0
KTAS 260604Z 06007KT 13/10 A3019 RMK A01 T01340100  RH  080%=      5-min Rain = 0
KTAS 260605Z 07007KT 13/10 A3019 RMK A01 T01340100  RH  080%=      5-min Rain = 0
KTAS 260606Z 07007KT 13/10 A3019 RMK A01 T01340100  RH  080%=      5-min Rain = 0
KTAS 260607Z 07007KT 13/10 A3019 RMK A01 T01340100  RH  080%=      5-min Rain = 0
KTAS 260608Z 07007KT 13/10 A3019 RMK A01 T01330100  RH  080%=      5-min Rain = 0
KTAS 260609Z 07007KT 13/10 A3019 RMK A01 T01320100  RH  081%=      5-min Rain = 0
KTAS 260610Z 07007KT 13/10 A3019 RMK A01 T01320100  RH  081%=      5-min Rain = 0
KTAS 260611Z 07007KT 13/10 A3019 RMK A01 T01320100  RH  081%=      5-min Rain = 0
KTAS 260612Z 07007KT 13/10 A3019 RMK A01 T01320100  RH  081%=      5-min Rain = 0
KTAS 260613Z 07007KT 13/10 A3019 RMK A01 T01320100  RH  081%=      5-min Rain = 0
KTAS 260614Z 08007KT 13/10 A3019 RMK A01 T01310100  RH  081%=      5-min Rain = 0
KTAS 260615Z 08007KT 13/10 A3019 RMK A01 T01300100  RH  082%=      5-min Rain = 0
KTAS 260616Z 08007KT 13/10 A3019 RMK A01 T01300100  RH  082%=      5-min Rain = 0
KTAS 260617Z 08007KT 13/10 A3019 RMK A01 T01300100  RH  082%=      5-min Rain = 0
KTAS 260618Z 08007KT 13/10 A3019 RMK A01 T01300100  RH  082%=      5-min Rain = 0
KTAS 260619Z 08007KT 13/10 A3019 RMK A01 T01300101  RH  082%=      5-min Rain = 0
KTAS 260620Z 08008KT 13/10 A3019 RMK A01 T01300101  RH  082%=      5-min Rain = 0
KTAS 260621Z 07008KT 13/10 A3019 RMK A01 T01300101  RH  082%=      5-min Rain = 0
KTAS 260622Z 07007KT 13/10 A3019 RMK A01 T01310101  RH  082%=      5-min Rain = 0
KTAS 260623Z 07007KT 13/10 A3019 RMK A01 T01300101  RH  082%=      5-min Rain = 0
KTAS 260624Z 07008KT 13/10 A3019 RMK A01 T01310101  RH  082%=      5-min Rain = 0
KTAS 260625Z 07008KT 13/10 A3019 RMK A01 T01310101  RH  082%=      5-min Rain = 0
KTAS 260626Z 07008KT 13/10 A3019 RMK A01 T01310101  RH  082%=      5-min Rain = 0
KTAS 260627Z 07008KT 13/10 A3019 RMK A01 T01320101  RH  082%=      5-min Rain = 0
KTAS 260628Z 07008KT 13/10 A3019 RMK A01 T01320101  RH  081%=      5-min Rain = 0
KTAS 260629Z 08007KT 13/10 A3019 RMK A01 T01320101  RH  081%=      5-min Rain = 0
KTAS 260630Z 08007KT 13/10 A3019 RMK A01 T01320101  RH  081%=      5-min Rain = 0
KTAS 260631Z 07007KT 13/10 A3019 RMK A01 T01320101  RH  081%=      5-min Rain = 0
KTAS 260632Z 07007KT 13/10 A3019 RMK A01 T01320101  RH  081%=      5-min Rain = 0
KTAS 260633Z 07007KT 13/10 A3019 RMK A01 T01310100  RH  081%=      5-min Rain = 0
KTAS 260634Z 07008KT 13/10 A3019 RMK A01 T01320101  RH  082%=      5-min Rain = 0
KTAS 260635Z 08008KT 13/10 A3019 RMK A01 T01320101  RH  082%=      5-min Rain = 0
KTAS 260636Z 08008KT 13/10 A3019 RMK A01 T01320101  RH  081%=      5-min Rain = 0
KTAS 260637Z 08007KT 13/10 A3019 RMK A01 T01320101  RH  081%=      5-min Rain = 0
KTAS 260638Z 08007KT 13/10 A3019 RMK A01 T01310101  RH  082%=      5-min Rain = 0
KTAS 260639Z 08007KT 13/10 A3019 RMK A01 T01310101  RH  082%=      5-min Rain = 0
KTAS 260640Z 08007KT 13/10 A3019 RMK A01 T01300100  RH  082%=      5-min Rain = 0
KTAS 260641Z 08007KT 13/10 A3019 RMK A01 T01300100  RH  082%=      5-min Rain = 0
KTAS 260642Z 07007KT 13/10 A3019 RMK A01 T01300100  RH  082%=      5-min Rain = 0
KTAS 260643Z 07007KT 13/10 A3019 RMK A01 T01290100  RH  083%=      5-min Rain = 0
KTAS 260644Z 07007KT 13/10 A3019 RMK A01 T01290100  RH  083%=      5-min Rain = 0
KTAS 260645Z 07007KT 13/10 A3019 RMK A01 T01290100  RH  083%=      5-min Rain = 0
KTAS 260646Z 07007KT 13/10 A3019 RMK A01 T01280100  RH  083%=      5-min Rain = 0
KTAS 260647Z 07007KT 13/10 A3019 RMK A01 T01280100  RH  083%=      5-min Rain = 0
KTAS 260648Z 07006KT 13/10 A3019 RMK A01 T01280100  RH  083%=      5-min Rain = 0
KTAS 260649Z 07007KT 13/10 A3019 RMK A01 T01280100  RH  083%=      5-min Rain = 0
KTAS 260650Z 07006KT 13/10 A3019 RMK A01 T01280100  RH  083%=      5-min Rain = 0
KTAS 260651Z 07007KT 13/10 A3019 RMK A01 T01280100  RH  083%=      5-min Rain = 0
KTAS 260652Z 07007KT 13/10 A3019 RMK A01 T01280100  RH  083%=      5-min Rain = 0
KTAS 260653Z 07008KT 13/10 A3019 RMK A01 T01280100  RH  083%=      5-min Rain = 0
KTAS 260654Z 07008KT 13/10 A3019 RMK A01 T01290100  RH  083%=      5-min Rain = 0
KTAS 260655Z 07008KT 13/10 A3019 RMK A01 T01290100  RH  083%=      5-min Rain = 0
KTAS 260656Z 07008KT 13/10 A3019 RMK A01 T01290100  RH  083%=      5-min Rain = 0
KTAS 260657Z 07007KT 13/10 A3019 RMK A01 T01280100  RH  083%=      5-min Rain = 0
KTAS 260658Z 07007KT 13/10 A3019 RMK A01 T01280100  RH  083%=      5-min Rain = 0
KTAS 260659Z 07007KT 13/10 A3019 RMK A01 T01280100  RH  083%=      5-min Rain = 0
KTAS 260700Z 07007KT 13/10 A3019 RMK A01 T01280100  RH  083%=      5-min Rain = 0
KTAS 260701Z 08006KT 13/10 A3019 RMK A01 T01280100  RH  083%=      5-min Rain = 0
KTAS 260702Z 08007KT 13/10 A3019 RMK A01 T01280100  RH  083%=      5-min Rain = 0
KTAS 260703Z 07006KT 13/10 A3019 RMK A01 T01280100  RH  083%=      5-min Rain = 0
KTAS 260704Z 07006KT 13/10 A3019 RMK A01 T01280099  RH  083%=      5-min Rain = 0
KTAS 260705Z 07007KT 13/10 A3019 RMK A01 T01270099  RH  083%=      5-min Rain = 0
KTAS 260706Z 08006KT 13/10 A3019 RMK A01 T01270099  RH  083%=      5-min Rain = 0
KTAS 260707Z 07007KT 13/10 A3019 RMK A01 T01260099  RH  083%=      5-min Rain = 0
KTAS 260708Z 08007KT 13/10 A3019 RMK A01 T01260099  RH  083%=      5-min Rain = 0
KTAS 260709Z 07007KT 13/10 A3019 RMK A01 T01260099  RH  083%=      5-min Rain = 0
KTAS 260710Z 07007KT 13/10 A3019 RMK A01 T01260099  RH  084%=      5-min Rain = 0
KTAS 260711Z 07007KT 13/10 A3019 RMK A01 T01250099  RH  084%=      5-min Rain = 0
KTAS 260712Z 07007KT 13/10 A3019 RMK A01 T01250099  RH  084%=      5-min Rain = 0
KTAS 260713Z 07007KT 12/10 A3019 RMK A01 T01240098  RH  084%=      5-min Rain = 0
KTAS 260714Z 07007KT 13/10 A3019 RMK A01 T01250099  RH  084%=      5-min Rain = 0
KTAS 260715Z 07007KT 13/10 A3019 RMK A01 T01250099  RH  084%=      5-min Rain = 0
KTAS 260716Z 07007KT 12/10 A3019 RMK A01 T01240098  RH  084%=      5-min Rain = 0
KTAS 260717Z 07007KT 12/10 A3019 RMK A01 T01240098  RH  085%=      5-min Rain = 0
KTAS 260718Z 07007KT 12/10 A3019 RMK A01 T01240099  RH  085%=      5-min Rain = 0
KTAS 260719Z 07007KT 12/10 A3019 RMK A01 T01230098  RH  085%=      5-min Rain = 0
KTAS 260720Z 07007KT 12/10 A3019 RMK A01 T01230098  RH  085%=      5-min Rain = 0
KTAS 260721Z 07007KT 12/10 A3019 RMK A01 T01220098  RH  085%=      5-min Rain = 0
KTAS 260722Z 07007KT 12/10 A3019 RMK A01 T01220098  RH  085%=      5-min Rain = 0
KTAS 260723Z 07007KT 12/10 A3019 RMK A01 T01220098  RH  085%=      5-min Rain = 0
KTAS 260724Z 07007KT 12/10 A3019 RMK A01 T01220098  RH  085%=      5-min Rain = 0
KTAS 260725Z 07006KT 12/10 A3019 RMK A01 T01220098  RH  085%=      5-min Rain = 0
KTAS 260726Z 08006KT 12/10 A3019 RMK A01 T01220099  RH  085%=      5-min Rain = 0
KTAS 260727Z 08006KT 12/10 A3019 RMK A01 T01220098  RH  085%=      5-min Rain = 0
KTAS 260728Z 07006KT 12/10 A3019 RMK A01 T01220098  RH  086%=      5-min Rain = 0
KTAS 260729Z 07006KT 12/10 A3019 RMK A01 T01220099  RH  086%=      5-min Rain = 0
KTAS 260730Z 07007KT 12/10 A3019 RMK A01 T01220099  RH  086%=      5-min Rain = 0
KTAS 260731Z 07007KT 12/10 A3019 RMK A01 T01220099  RH  086%=      5-min Rain = 0
KTAS 260732Z 07007KT 12/10 A3019 RMK A01 T01220099  RH  086%=      5-min Rain = 0
KTAS 260733Z 07007KT 12/10 A3019 RMK A01 T01220098  RH  086%=      5-min Rain = 0
KTAS 260734Z 07007KT 12/10 A3019 RMK A01 T01220099  RH  086%=      5-min Rain = 0
KTAS 260735Z 08007KT 12/10 A3019 RMK A01 T01220098  RH  086%=      5-min Rain = 0
KTAS 260736Z 08007KT 12/10 A3019 RMK A01 T01220099  RH  086%=      5-min Rain = 0
KTAS 260737Z 08006KT 12/10 A3019 RMK A01 T01220099  RH  086%=      5-min Rain = 0
KTAS 260738Z 08006KT 12/10 A3019 RMK A01 T01220099  RH  086%=      5-min Rain = 0
KTAS 260739Z 08006KT 12/10 A3019 RMK A01 T01220099  RH  086%=      5-min Rain = 0
KTAS 260740Z 08006KT 12/10 A3019 RMK A01 T01220099  RH  086%=      5-min Rain = 0
KTAS 260741Z 08005KT 12/10 A3019 RMK A01 T01220099  RH  086%=      5-min Rain = 0
KTAS 260742Z 08006KT 12/10 A3019 RMK A01 T01220099  RH  086%=      5-min Rain = 0
KTAS 260743Z 08006KT 12/10 A3019 RMK A01 T01220099  RH  086%=      5-min Rain = 0
KTAS 260744Z 08006KT 12/10 A3019 RMK A01 T01220099  RH  086%=      5-min Rain = 0
KTAS 260745Z 07006KT 12/10 A3019 RMK A01 T01210099  RH  086%=      5-min Rain = 0
KTAS 260746Z 07006KT 12/10 A3019 RMK A01 T01210099  RH  086%=      5-min Rain = 0
KTAS 260747Z 07006KT 12/10 A3019 RMK A01 T01200098  RH  086%=      5-min Rain = 0
KTAS 260748Z 06006KT 12/10 A3019 RMK A01 T01200098  RH  086%=      5-min Rain = 0
KTAS 260749Z 07006KT 12/10 A3019 RMK A01 T01210098  RH  086%=      5-min Rain = 0
KTAS 260750Z 07006KT 12/10 A3019 RMK A01 T01210098  RH  086%=      5-min Rain = 0
KTAS 260751Z 07006KT 12/10 A3018 RMK A01 T01210098  RH  086%=      5-min Rain = 0
KTAS 260752Z 07006KT 12/10 A3018 RMK A01 T01200098  RH  086%=      5-min Rain = 0
KTAS 260753Z 07006KT 12/10 A3018 RMK A01 T01200098  RH  086%=      5-min Rain = 0
KTAS 260754Z 07006KT 12/10 A3018 RMK A01 T01200098  RH  086%=      5-min Rain = 0
KTAS 260755Z 07006KT 12/10 A3018 RMK A01 T01190097  RH  086%=      5-min Rain = 0
KTAS 260756Z 07007KT 12/10 A3018 RMK A01 T01180097  RH  087%=      5-min Rain = 0
KTAS 260757Z 07006KT 12/10 A3018 RMK A01 T01180097  RH  087%=      5-min Rain = 0
KTAS 260758Z 07007KT 12/10 A3018 RMK A01 T01180097  RH  087%=      5-min Rain = 0
KTAS 260759Z 07007KT 12/10 A3018 RMK A01 T01180097  RH  087%=      5-min Rain = 0
KTAS 260800Z 07006KT 12/10 A3018 RMK A01 T01180097  RH  087%=      5-min Rain = 0
KTAS 260801Z 07007KT 12/10 A3018 RMK A01 T01180098  RH  087%=      5-min Rain = 0
KTAS 260802Z 07007KT 12/10 A3018 RMK A01 T01190098  RH  087%=      5-min Rain = 0
KTAS 260803Z 07007KT 12/10 A3018 RMK A01 T01200098  RH  087%=      5-min Rain = 0
KTAS 260804Z 08007KT 12/10 A3018 RMK A01 T01200099  RH  086%=      5-min Rain = 0
KTAS 260805Z 08007KT 12/10 A3018 RMK A01 T01200099  RH  087%=      5-min Rain = 0
KTAS 260806Z 08007KT 12/10 A3018 RMK A01 T01200099  RH  087%=      5-min Rain = 0
KTAS 260807Z 08008KT 12/10 A3018 RMK A01 T01210099  RH  087%=      5-min Rain = 0
KTAS 260808Z 08009KT 12/10 A3018 RMK A01 T01220100  RH  086%=      5-min Rain = 0
KTAS 260809Z 07008KT 12/10 A3018 RMK A01 T01230100  RH  086%=      5-min Rain = 0
KTAS 260810Z 08009KT 12/10 A3018 RMK A01 T01240100  RH  085%=      5-min Rain = 0
KTAS 260811Z 07009KT 13/10 A3018 RMK A01 T01250100  RH  085%=      5-min Rain = 0
KTAS 260812Z 07009KT 13/10 A3018 RMK A01 T01260100  RH  084%=      5-min Rain = 0
KTAS 260813Z 07009KT 13/10 A3018 RMK A01 T01260100  RH  084%=      5-min Rain = 0
KTAS 260814Z 08008KT 13/10 A3018 RMK A01 T01260100  RH  084%=      5-min Rain = 0
KTAS 260815Z 08008KT 13/10 A3018 RMK A01 T01260100  RH  084%=      5-min Rain = 0
KTAS 260816Z 08007KT 13/10 A3019 RMK A01 T01250100  RH  085%=      5-min Rain = 0
KTAS 260817Z 08008KT 13/10 A3019 RMK A01 T01250100  RH  085%=      5-min Rain = 0
KTAS 260818Z 07008KT 13/10 A3019 RMK A01 T01250100  RH  085%=      5-min Rain = 0
KTAS 260819Z 07007KT 12/10 A3019 RMK A01 T01240099  RH  085%=      5-min Rain = 0
KTAS 260820Z 08008KT 13/10 A3019 RMK A01 T01250099  RH  084%=      5-min Rain = 0
KTAS 260821Z 08008KT 12/10 A3019 RMK A01 T01240099  RH  085%=      5-min Rain = 0
KTAS 260822Z 08007KT 12/10 A3019 RMK A01 T01240099  RH  084%=      5-min Rain = 0
KTAS 260823Z 08008KT 12/10 A3019 RMK A01 T01240099  RH  084%=      5-min Rain = 0
KTAS 260824Z 08007KT 13/10 A3019 RMK A01 T01250099  RH  084%=      5-min Rain = 0
KTAS 260825Z 08007KT 12/10 A3019 RMK A01 T01240099  RH  084%=      5-min Rain = 0
KTAS 260826Z 08008KT 12/10 A3019 RMK A01 T01240099  RH  085%=      5-min Rain = 0
KTAS 260827Z 08007KT 12/10 A3019 RMK A01 T01240099  RH  085%=      5-min Rain = 0
KTAS 260828Z 08008KT 12/10 A3019 RMK A01 T01240099  RH  084%=      5-min Rain = 0
KTAS 260829Z 08009KT 12/10 A3019 RMK A01 T01240098  RH  084%=      5-min Rain = 0
KTAS 260830Z 07008KT 12/10 A3019 RMK A01 T01240099  RH  084%=      5-min Rain = 0
KTAS 260831Z 07007KT 12/10 A3019 RMK A01 T01240098  RH  084%=      5-min Rain = 0
KTAS 260832Z 07008KT 12/10 A3019 RMK A01 T01240098  RH  084%=      5-min Rain = 0
KTAS 260833Z 08007KT 12/10 A3019 RMK A01 T01240098  RH  084%=      5-min Rain = 0
KTAS 260834Z 08009KT 12/10 A3019 RMK A01 T01240098  RH  084%=      5-min Rain = 0
KTAS 260835Z 08008KT 12/10 A3019 RMK A01 T01240098  RH  084%=      5-min Rain = 0
KTAS 260836Z 08009KT 12/10 A3019 RMK A01 T01240098  RH  084%=      5-min Rain = 0
KTAS 260837Z 08008KT 13/10 A3019 RMK A01 T01250098  RH  084%=      5-min Rain = 0
KTAS 260838Z 07008KT 13/10 A3019 RMK A01 T01250098  RH  084%=      5-min Rain = 0
KTAS 260839Z 07008KT 13/10 A3019 RMK A01 T01250099  RH  084%=      5-min Rain = 0
KTAS 260840Z 07008KT 13/10 A302 RMK A01 T01250099  RH  084%=      5-min Rain = 0
KTAS 260841Z 07007KT 13/10 A302 RMK A01 T01250099  RH  084%=      5-min Rain = 0
KTAS 260842Z 07007KT 12/10 A302 RMK A01 T01240099  RH  084%=      5-min Rain = 0
KTAS 260843Z 07007KT 12/10 A302 RMK A01 T01240098  RH  084%=      5-min Rain = 0
KTAS 260844Z 07007KT 12/10 A302 RMK A01 T01240099  RH  084%=      5-min Rain = 0
KTAS 260845Z 06007KT 12/10 A302 RMK A01 T01240098  RH  084%=      5-min Rain = 0
KTAS 260846Z 06007KT 12/10 A302 RMK A01 T01240098  RH  084%=      5-min Rain = 0
KTAS 260847Z 06008KT 12/10 A302 RMK A01 T01240098  RH  085%=      5-min Rain = 0
KTAS 260848Z 06007KT 12/10 A302 RMK A01 T01240098  RH  085%=      5-min Rain = 0
KTAS 260849Z 06006KT 12/10 A302 RMK A01 T01230098  RH  085%=      5-min Rain = 0
KTAS 260850Z 06006KT 12/10 A302 RMK A01 T01220097  RH  085%=      5-min Rain = 0
KTAS 260851Z 06006KT 12/10 A302 RMK A01 T01210097  RH  085%=      5-min Rain = 0
KTAS 260852Z 06006KT 12/10 A302 RMK A01 T01210097  RH  086%=      5-min Rain = 0
KTAS 260853Z 06006KT 12/10 A302 RMK A01 T01200097  RH  086%=      5-min Rain = 0
KTAS 260854Z 06006KT 12/10 A302 RMK A01 T01200096  RH  086%=      5-min Rain = 0
KTAS 260855Z 06006KT 12/10 A302 RMK A01 T01190096  RH  086%=      5-min Rain = 0
KTAS 260856Z 06006KT 12/10 A302 RMK A01 T01190096  RH  086%=      5-min Rain = 0
KTAS 260857Z 06006KT 12/10 A302 RMK A01 T01190096  RH  086%=      5-min Rain = 0
KTAS 260858Z 06007KT 12/10 A302 RMK A01 T01190096  RH  086%=      5-min Rain = 0
KTAS 260859Z 07007KT 12/10 A302 RMK A01 T01190096  RH  086%=      5-min Rain = 0
KTAS 260900Z 07007KT 12/10 A302 RMK A01 T01180096  RH  086%=      5-min Rain = 0
KTAS 260901Z 06007KT 12/10 A302 RMK A01 T01180096  RH  086%=      5-min Rain = 0
KTAS 260902Z 06007KT 12/10 A302 RMK A01 T01170095  RH  086%=      5-min Rain = 0
KTAS 260903Z 06007KT 12/10 A302 RMK A01 T01170095  RH  087%=      5-min Rain = 0
KTAS 260904Z 06007KT 12/10 A302 RMK A01 T01160095  RH  087%=      5-min Rain = 0
KTAS 260905Z 06006KT 12/10 A302 RMK A01 T01160095  RH  087%=      5-min Rain = 0
KTAS 260906Z 06006KT 12/10 A302 RMK A01 T01160095  RH  087%=      5-min Rain = 0
KTAS 260907Z 06006KT 12/10 A302 RMK A01 T01150095  RH  088%=      5-min Rain = 0
KTAS 260908Z 06006KT 12/10 A302 RMK A01 T01150095  RH  088%=      5-min Rain = 0
KTAS 260909Z 06006KT 11/10 A302 RMK A01 T01140095  RH  088%=      5-min Rain = 0
KTAS 260910Z 06006KT 11/10 A302 RMK A01 T01130095  RH  088%=      5-min Rain = 0
KTAS 260911Z 06006KT 11/09 A302 RMK A01 T01130094  RH  088%=      5-min Rain = 0
KTAS 260912Z 06006KT 11/09 A302 RMK A01 T01120094  RH  089%=      5-min Rain = 0
KTAS 260913Z 05006KT 11/09 A302 RMK A01 T01120094  RH  089%=      5-min Rain = 0
KTAS 260914Z 05006KT 11/09 A302 RMK A01 T01120094  RH  089%=      5-min Rain = 0
KTAS 260915Z 05006KT 11/09 A3021 RMK A01 T01110094  RH  089%=      5-min Rain = 0
KTAS 260916Z 05006KT 11/09 A3021 RMK A01 T01110094  RH  089%=      5-min Rain = 0
KTAS 260917Z 05006KT 11/09 A3021 RMK A01 T01100094  RH  090%=      5-min Rain = 0
KTAS 260918Z 05006KT 11/09 A3021 RMK A01 T01100094  RH  090%=      5-min Rain = 0
KTAS 260919Z 06006KT 11/09 A3021 RMK A01 T01100094  RH  090%=      5-min Rain = 0
KTAS 260920Z 06006KT 11/10 A302 RMK A01 T01110096  RH  090%=      5-min Rain = 0
KTAS 260921Z 06006KT 11/10 A302 RMK A01 T01110095  RH  090%=      5-min Rain = 0
KTAS 260922Z 07006KT 11/10 A302 RMK A01 T01110095  RH  090%=      5-min Rain = 0
KTAS 260923Z 07006KT 11/09 A302 RMK A01 T01100093  RH  090%=      5-min Rain = 0
KTAS 260924Z 07006KT 11/09 A302 RMK A01 T01080092  RH  090%=      5-min Rain = 0
KTAS 260925Z 07006KT 11/09 A302 RMK A01 T01070092  RH  090%=      5-min Rain = 0
KTAS 260926Z 07006KT 11/09 A302 RMK A01 T01070092  RH  090%=      5-min Rain = 0
KTAS 260927Z 07005KT 11/09 A3021 RMK A01 T01070092  RH  091%=      5-min Rain = 0
KTAS 260928Z 06006KT 11/09 A3021 RMK A01 T01070093  RH  091%=      5-min Rain = 0
KTAS 260929Z 06005KT 11/09 A3021 RMK A01 T01070093  RH  091%=      5-min Rain = 0
KTAS 260930Z 06006KT 11/09 A3021 RMK A01 T01070093  RH  091%=      5-min Rain = 0
KTAS 260931Z 06006KT 11/09 A3021 RMK A01 T01080094  RH  091%=      5-min Rain = 0
KTAS 260932Z 06007KT 11/10 A3021 RMK A01 T01080095  RH  091%=      5-min Rain = 0
KTAS 260933Z 07006KT 11/10 A3021 RMK A01 T01090095  RH  091%=      5-min Rain = 0
KTAS 260934Z 07007KT 11/10 A3021 RMK A01 T01090095  RH  091%=      5-min Rain = 0
KTAS 260935Z 07006KT 11/10 A3021 RMK A01 T01090095  RH  091%=      5-min Rain = 0
KTAS 260936Z 07006KT 11/10 A3021 RMK A01 T01090095  RH  091%=      5-min Rain = 0
KTAS 260937Z 07006KT 11/10 A3021 RMK A01 T01090095  RH  092%=      5-min Rain = 0
KTAS 260938Z 07006KT 11/10 A3021 RMK A01 T01090096  RH  092%=      5-min Rain = 0
KTAS 260939Z 07006KT 11/10 A3021 RMK A01 T01100097  RH  092%=      5-min Rain = 0
KTAS 260940Z 06006KT 11/10 A3021 RMK A01 T01100097  RH  091%=      5-min Rain = 0
KTAS 260941Z 06006KT 11/10 A3021 RMK A01 T01110097  RH  091%=      5-min Rain = 0
KTAS 260942Z 07006KT 11/10 A3021 RMK A01 T01120097  RH  091%=      5-min Rain = 0
KTAS 260943Z 07007KT 11/10 A3021 RMK A01 T01120097  RH  091%=      5-min Rain = 0
KTAS 260944Z 07006KT 11/10 A3021 RMK A01 T01130098  RH  090%=      5-min Rain = 0
KTAS 260945Z 07007KT 11/10 A3021 RMK A01 T01130097  RH  090%=      5-min Rain = 0
KTAS 260946Z 07007KT 11/10 A3021 RMK A01 T01130098  RH  090%=      5-min Rain = 0
KTAS 260947Z 07007KT 11/10 A3021 RMK A01 T01130098  RH  090%=      5-min Rain = 0
KTAS 260948Z 07006KT 11/10 A3021 RMK A01 T01140098  RH  090%=      5-min Rain = 0
KTAS 260949Z 07006KT 11/10 A3021 RMK A01 T01140098  RH  090%=      5-min Rain = 0
KTAS 260950Z 07007KT 11/10 A3021 RMK A01 T01140098  RH  090%=      5-min Rain = 0
KTAS 260951Z 08007KT 12/10 A3021 RMK A01 T01150098  RH  090%=      5-min Rain = 0
KTAS 260952Z 07007KT 12/10 A3021 RMK A01 T01150098  RH  089%=      5-min Rain = 0
KTAS 260953Z 07007KT 12/10 A3021 RMK A01 T01150098  RH  089%=      5-min Rain = 0
KTAS 260954Z 07007KT 12/10 A3021 RMK A01 T01160098  RH  089%=      5-min Rain = 0
KTAS 260955Z 07008KT 12/10 A3021 RMK A01 T01160098  RH  089%=      5-min Rain = 0
KTAS 260956Z 07008KT 12/10 A3021 RMK A01 T01160098  RH  088%=      5-min Rain = 0
KTAS 260957Z 07009KT 12/10 A3021 RMK A01 T01170098  RH  088%=      5-min Rain = 0
KTAS 260958Z 06008KT 12/10 A3021 RMK A01 T01180098  RH  088%=      5-min Rain = 0
KTAS 260959Z 06008KT 12/10 A3021 RMK A01 T01180097  RH  087%=      5-min Rain = 0
KTAS 261000Z 06008KT 12/10 A3021 RMK A01 T01180097  RH  087%=      5-min Rain = 0
KTAS 261001Z 06009KT 12/10 A3021 RMK A01 T01180097  RH  087%=      5-min Rain = 0
KTAS 261002Z 06009KT 12/10 A3021 RMK A01 T01180097  RH  087%=      5-min Rain = 0
KTAS 261003Z 07008KT 12/10 A3021 RMK A01 T01180097  RH  087%=      5-min Rain = 0
KTAS 261004Z 07008KT 12/10 A3021 RMK A01 T01180097  RH  087%=      5-min Rain = 0
KTAS 261005Z 07008KT 12/10 A3021 RMK A01 T01190097  RH  087%=      5-min Rain = 0
KTAS 261006Z 07008KT 12/10 A3021 RMK A01 T01190097  RH  087%=      5-min Rain = 0
KTAS 261007Z 07009KT 12/10 A3021 RMK A01 T01190097  RH  087%=      5-min Rain = 0
KTAS 261008Z 07008KT 12/10 A3021 RMK A01 T01190097  RH  086%=      5-min Rain = 0
KTAS 261009Z 07008KT 12/10 A3021 RMK A01 T01200097  RH  086%=      5-min Rain = 0
KTAS 261010Z 07009KT 12/10 A3021 RMK A01 T01200097  RH  086%=      5-min Rain = 0
KTAS 261011Z 08008KT 12/10 A3021 RMK A01 T01200097  RH  086%=      5-min Rain = 0
KTAS 261012Z 08008KT 12/10 A3021 RMK A01 T01200097  RH  086%=      5-min Rain = 0
KTAS 261013Z 07008KT 12/10 A3021 RMK A01 T01200097  RH  085%=      5-min Rain = 0
KTAS 261014Z 08009KT 12/10 A3021 RMK A01 T01210097  RH  085%=      5-min Rain = 0
KTAS 261015Z 08009KT 12/10 A3021 RMK A01 T01210097  RH  085%=      5-min Rain = 0
KTAS 261016Z 07009KT 12/10 A3021 RMK A01 T01210096  RH  085%=      5-min Rain = 0
KTAS 261017Z 07009KT 12/10 A3021 RMK A01 T01220096  RH  084%=      5-min Rain = 0
KTAS 261018Z 07011KT 12/10 A3021 RMK A01 T01220096  RH  084%=      5-min Rain = 0
KTAS 261019Z 08010KT 12/10 A3021 RMK A01 T01220095  RH  084%=      5-min Rain = 0
KTAS 261020Z 07009KT 12/10 A3021 RMK A01 T01230095  RH  083%=      5-min Rain = 0
KTAS 261021Z 07010KT 12/10 A3021 RMK A01 T01230095  RH  083%=      5-min Rain = 0
KTAS 261022Z 07010KT 12/10 A3021 RMK A01 T01230095  RH  083%=      5-min Rain = 0
KTAS 261023Z 07010KT 12/10 A3021 RMK A01 T01230095  RH  083%=      5-min Rain = 0
KTAS 261024Z 07011KT 12/10 A3021 RMK A01 T01230095  RH  083%=      5-min Rain = 0
KTAS 261025Z 07011KT 12/10 A3021 RMK A01 T01230095  RH  083%=      5-min Rain = 0
KTAS 261026Z 07010KT 12/09 A3021 RMK A01 T01230094  RH  083%=      5-min Rain = 0
KTAS 261027Z 07011KT 12/09 A3021 RMK A01 T01230094  RH  083%=      5-min Rain = 0
KTAS 261028Z 07011KT 12/09 A3021 RMK A01 T01240094  RH  082%=      5-min Rain = 0
KTAS 261029Z 07011KT 12/09 A3021 RMK A01 T01240094  RH  082%=      5-min Rain = 0
KTAS 261030Z 07011KT 12/09 A3021 RMK A01 T01240094  RH  082%=      5-min Rain = 0
KTAS 261031Z 07011G17KT 12/09 A3022 RMK A01 T01240094  RH  082%=      5-min Rain = 0
KTAS 261032Z 07011KT 12/09 A3022 RMK A01 T01240093  RH  082%=      5-min Rain = 0
KTAS 261033Z 07009KT 12/09 A3022 RMK A01 T01240094  RH  082%=      5-min Rain = 0
KTAS 261034Z 08011KT 12/09 A3022 RMK A01 T01240094  RH  082%=      5-min Rain = 0
KTAS 261035Z 08013KT 12/09 A3022 RMK A01 T01240093  RH  081%=      5-min Rain = 0
KTAS 261036Z 07010KT 13/09 A3022 RMK A01 T01250093  RH  081%=      5-min Rain = 0
KTAS 261037Z 07011KT 12/09 A3022 RMK A01 T01240093  RH  081%=      5-min Rain = 0
KTAS 261038Z 08011KT 12/09 A3022 RMK A01 T01240093  RH  081%=      5-min Rain = 0
KTAS 261039Z 07010KT 12/09 A3022 RMK A01 T01240093  RH  082%=      5-min Rain = 0
KTAS 261040Z 07011KT 12/09 A3022 RMK A01 T01240093  RH  082%=      5-min Rain = 0
KTAS 261041Z 07011KT 12/09 A3022 RMK A01 T01240093  RH  081%=      5-min Rain = 0
KTAS 261042Z 07012KT 12/09 A3022 RMK A01 T01240093  RH  081%=      5-min Rain = 0
KTAS 261043Z 07012KT 12/09 A3022 RMK A01 T01240092  RH  081%=      5-min Rain = 0
KTAS 261044Z 07011KT 12/09 A3022 RMK A01 T01240093  RH  081%=      5-min Rain = 0
KTAS 261045Z 07011KT 12/09 A3022 RMK A01 T01240093  RH  081%=      5-min Rain = 0
KTAS 261046Z 07010KT 12/09 A3022 RMK A01 T01240092  RH  081%=      5-min Rain = 0
KTAS 261047Z 07010KT 12/09 A3022 RMK A01 T01240093  RH  081%=      5-min Rain = 0
KTAS 261048Z 06010KT 12/09 A3022 RMK A01 T01240093  RH  081%=      5-min Rain = 0
KTAS 261049Z 06010KT 12/09 A3022 RMK A01 T01240093  RH  081%=      5-min Rain = 0
KTAS 261050Z 06010KT 12/09 A3022 RMK A01 T01240093  RH  081%=      5-min Rain = 0
KTAS 261051Z 06009KT 12/09 A3022 RMK A01 T01240093  RH  081%=      5-min Rain = 0
KTAS 261052Z 06010KT 12/09 A3022 RMK A01 T01240093  RH  081%=      5-min Rain = 0
KTAS 261053Z 06010KT 12/09 A3022 RMK A01 T01240093  RH  081%=      5-min Rain = 0
KTAS 261054Z 06009KT 12/09 A3022 RMK A01 T01240093  RH  081%=      5-min Rain = 0
KTAS 261055Z 06009KT 12/09 A3022 RMK A01 T01240093  RH  081%=      5-min Rain = 0
KTAS 261056Z 06010KT 12/09 A3022 RMK A01 T01240093  RH  082%=      5-min Rain = 0
KTAS 261057Z 07008KT 12/09 A3022 RMK A01 T01240093  RH  082%=      5-min Rain = 0
KTAS 261058Z 07010KT 12/09 A3022 RMK A01 T01240094  RH  082%=      5-min Rain = 0
KTAS 261059Z 07009KT 12/09 A3022 RMK A01 T01240094  RH  082%=      5-min Rain = 0
KTAS 261100Z 07009KT 12/09 A3022 RMK A01 T01240094  RH  082%=      5-min Rain = 0
KTAS 261101Z 06009KT 12/09 A3022 RMK A01 T01240094  RH  082%=      5-min Rain = 0
KTAS 261102Z 06009KT 12/09 A3022 RMK A01 T01230094  RH  082%=      5-min Rain = 0
KTAS 261103Z 07009KT 12/09 A3022 RMK A01 T01230094  RH  082%=      5-min Rain = 0
KTAS 261104Z 07009KT 12/09 A3022 RMK A01 T01230094  RH  082%=      5-min Rain = 0
KTAS 261105Z 07009KT 12/09 A3022 RMK A01 T01230094  RH  082%=      5-min Rain = 0
KTAS 261106Z 07009KT 12/09 A3022 RMK A01 T01230093  RH  082%=      5-min Rain = 0
KTAS 261107Z 07009KT 12/09 A3022 RMK A01 T01230094  RH  082%=      5-min Rain = 0
KTAS 261108Z 07008KT 12/09 A3023 RMK A01 T01230094  RH  082%=      5-min Rain = 0
KTAS 261109Z 07008KT 12/09 A3023 RMK A01 T01220093  RH  082%=      5-min Rain = 0
KTAS 261110Z 07007KT 12/09 A3023 RMK A01 T01220094  RH  083%=      5-min Rain = 0
KTAS 261111Z 07009KT 12/09 A3023 RMK A01 T01220094  RH  083%=      5-min Rain = 0
KTAS 261112Z 08007KT 12/09 A3023 RMK A01 T01220093  RH  083%=      5-min Rain = 0
KTAS 261113Z 07008KT 12/09 A3023 RMK A01 T01220094  RH  083%=      5-min Rain = 0
KTAS 261114Z 08008KT 12/09 A3023 RMK A01 T01220093  RH  083%=      5-min Rain = 0
KTAS 261115Z 08008KT 12/09 A3023 RMK A01 T01220093  RH  082%=      5-min Rain = 0
KTAS 261116Z 08007KT 12/09 A3023 RMK A01 T01220093  RH  082%=      5-min Rain = 0
KTAS 261117Z 08007KT 12/09 A3023 RMK A01 T01210093  RH  083%=      5-min Rain = 0
KTAS 261118Z 07008KT 12/09 A3023 RMK A01 T01210092  RH  083%=      5-min Rain = 0
KTAS 261119Z 07008KT 12/09 A3023 RMK A01 T01220092  RH  082%=      5-min Rain = 0
KTAS 261120Z 08007KT 12/09 A3023 RMK A01 T01210092  RH  082%=      5-min Rain = 0
KTAS 261121Z 07009KT 12/09 A3023 RMK A01 T01210092  RH  082%=      5-min Rain = 0
KTAS 261122Z 07009KT 12/09 A3023 RMK A01 T01220091  RH  082%=      5-min Rain = 0
KTAS 261123Z 07008KT 12/09 A3023 RMK A01 T01210091  RH  082%=      5-min Rain = 0
KTAS 261124Z 07008KT 12/09 A3023 RMK A01 T01210091  RH  082%=      5-min Rain = 0
KTAS 261125Z 07008KT 12/09 A3024 RMK A01 T01220091  RH  082%=      5-min Rain = 0
KTAS 261126Z 07007KT 12/09 A3024 RMK A01 T01210091  RH  082%=      5-min Rain = 0
KTAS 261127Z 07007KT 12/09 A3024 RMK A01 T01210091  RH  082%=      5-min Rain = 0
KTAS 261128Z 07008KT 12/09 A3024 RMK A01 T01210091  RH  082%=      5-min Rain = 0
KTAS 261129Z 08007KT 12/09 A3024 RMK A01 T01210091  RH  082%=      5-min Rain = 0
KTAS 261130Z 08008KT 12/09 A3024 RMK A01 T01210091  RH  082%=      5-min Rain = 0
KTAS 261131Z 08007KT 12/09 A3024 RMK A01 T01200091  RH  082%=      5-min Rain = 0
KTAS 261132Z 07007KT 12/09 A3024 RMK A01 T01200091  RH  082%=      5-min Rain = 0
KTAS 261133Z 07007KT 12/09 A3024 RMK A01 T01200091  RH  083%=      5-min Rain = 0
KTAS 261134Z 07008KT 12/09 A3024 RMK A01 T01200091  RH  082%=      5-min Rain = 0
KTAS 261135Z 07008KT 12/09 A3024 RMK A01 T01200091  RH  082%=      5-min Rain = 0
KTAS 261136Z 07007KT 12/09 A3024 RMK A01 T01210091  RH  082%=      5-min Rain = 0
KTAS 261137Z 07007KT 12/09 A3024 RMK A01 T01210091  RH  082%=      5-min Rain = 0
KTAS 261138Z 07007KT 12/09 A3024 RMK A01 T01210091  RH  082%=      5-min Rain = 0
KTAS 261139Z 08007KT 12/09 A3024 RMK A01 T01210091  RH  082%=      5-min Rain = 0
KTAS 261140Z 08007KT 12/09 A3024 RMK A01 T01210091  RH  082%=      5-min Rain = 0
KTAS 261141Z 08008KT 12/09 A3024 RMK A01 T01200091  RH  082%=      5-min Rain = 0
KTAS 261142Z 08008KT 12/09 A3024 RMK A01 T01200091  RH  082%=      5-min Rain = 0
KTAS 261143Z 09008KT 12/09 A3024 RMK A01 T01210091  RH  082%=      5-min Rain = 0
KTAS 261144Z 09007KT 12/09 A3024 RMK A01 T01220091  RH  082%=      5-min Rain = 0
KTAS 261145Z 09008KT 12/09 A3024 RMK A01 T01210091  RH  082%=      5-min Rain = 0
KTAS 261146Z 10008KT 12/09 A3024 RMK A01 T01210090  RH  081%=      5-min Rain = 0
KTAS 261147Z 10006KT 12/09 A3024 RMK A01 T01210090  RH  081%=      5-min Rain = 0
KTAS 261148Z 09007KT 12/09 A3024 RMK A01 T01210090  RH  081%=      5-min Rain = 0
KTAS 261149Z 09008KT 12/09 A3024 RMK A01 T01210089  RH  081%=      5-min Rain = 0
KTAS 261150Z 09008KT 12/09 A3024 RMK A01 T01210089  RH  081%=      5-min Rain = 0
KTAS 261151Z 08008KT 12/09 A3024 RMK A01 T01220089  RH  080%=      5-min Rain = 0
KTAS 261152Z 09009KT 12/09 A3024 RMK A01 T01220088  RH  080%=      5-min Rain = 0
KTAS 261153Z 09008KT 12/09 A3024 RMK A01 T01220088  RH  080%=      5-min Rain = 0
KTAS 261154Z 09007KT 12/09 A3024 RMK A01 T01210088  RH  080%=      5-min Rain = 0
KTAS 261155Z 09007KT 12/09 A3024 RMK A01 T01210088  RH  081%=      5-min Rain = 0
KTAS 261156Z 09007KT 12/09 A3024 RMK A01 T01200089  RH  081%=      5-min Rain = 0
KTAS 261157Z 09008G13KT 12/09 A3024 RMK A01 T01200089  RH  081%=      5-min Rain = 0
KTAS 261158Z 09011KT 12/09 A3024 RMK A01 T01200088  RH  081%=      5-min Rain = 0
KTAS 261159Z 10010G15KT 12/09 A3024 RMK A01 T01230087  RH  079%=      5-min Rain = 0
KTAS 261200Z 09007KT 12/09 A3024 RMK A01 T01240087  RH  078%=      5-min Rain = 0
KTAS 261201Z 10007KT 12/09 A3024 RMK A01 T01230087  RH  079%=      5-min Rain = 0
KTAS 261202Z 10008KT 12/09 A3024 RMK A01 T01210088  RH  080%=      5-min Rain = 0
KTAS 261203Z 10008KT 12/09 A3024 RMK A01 T01200088  RH  081%=      5-min Rain = 0
KTAS 261204Z 09009KT 12/09 A3024 RMK A01 T01190088  RH  081%=      5-min Rain = 0
KTAS 261205Z 09007KT 12/09 A3024 RMK A01 T01200088  RH  081%=      5-min Rain = 0
KTAS 261206Z 10008KT 12/09 A3024 RMK A01 T01190088  RH  082%=      5-min Rain = 0
KTAS 261207Z 10009KT 12/09 A3024 RMK A01 T01180089  RH  082%=      5-min Rain = 0
KTAS 261208Z 10008KT 12/09 A3024 RMK A01 T01180089  RH  082%=      5-min Rain = 0
KTAS 261209Z 10009KT 12/09 A3024 RMK A01 T01180089  RH  082%=      5-min Rain = 0
KTAS 261210Z 10009KT 12/09 A3024 RMK A01 T01180090  RH  082%=      5-min Rain = 0
KTAS 261211Z 10008KT 12/09 A3024 RMK A01 T01180090  RH  083%=      5-min Rain = 0
KTAS 261212Z 10009KT 12/09 A3024 RMK A01 T01180090  RH  083%=      5-min Rain = 0
KTAS 261213Z 10008KT 12/09 A3024 RMK A01 T01180090  RH  083%=      5-min Rain = 0
KTAS 261214Z 11009KT 12/09 A3024 RMK A01 T01180090  RH  083%=      5-min Rain = 0
KTAS 261215Z 10010KT 12/09 A3024 RMK A01 T01190090  RH  083%=      5-min Rain = 0
KTAS 261216Z 09008KT 12/09 A3024 RMK A01 T01190090  RH  082%=      5-min Rain = 0
KTAS 261217Z 09009KT 12/09 A3024 RMK A01 T01200091  RH  082%=      5-min Rain = 0
KTAS 261218Z 10008KT 12/09 A3024 RMK A01 T01200091  RH  082%=      5-min Rain = 0
KTAS 261219Z 10009KT 12/09 A3024 RMK A01 T01190090  RH  083%=      5-min Rain = 0
KTAS 261220Z 10009KT 12/09 A3024 RMK A01 T01200090  RH  082%=      5-min Rain = 0
KTAS 261221Z 10009KT 12/09 A3024 RMK A01 T01200091  RH  082%=      5-min Rain = 0
KTAS 261222Z 10009KT 12/09 A3024 RMK A01 T01200091  RH  082%=      5-min Rain = 0
KTAS 261223Z 10010KT 12/09 A3024 RMK A01 T01210090  RH  082%=      5-min Rain = 0
KTAS 261224Z 10011KT 12/09 A3024 RMK A01 T01210090  RH  081%=      5-min Rain = 0
KTAS 261225Z 10010KT 12/09 A3024 RMK A01 T01220090  RH  081%=      5-min Rain = 0
KTAS 261226Z 10010KT 12/09 A3024 RMK A01 T01220090  RH  081%=      5-min Rain = 0
KTAS 261227Z 10011KT 12/09 A3024 RMK A01 T01220090  RH  080%=      5-min Rain = 0
KTAS 261228Z 11010KT 12/09 A3024 RMK A01 T01230089  RH  080%=      5-min Rain = 0
KTAS 261229Z 10011G16KT 12/09 A3024 RMK A01 T01230090  RH  080%=      5-min Rain = 0
KTAS 261230Z 11011KT 12/09 A3024 RMK A01 T01230090  RH  080%=      5-min Rain = 0
KTAS 261231Z 11012KT 12/09 A3024 RMK A01 T01230089  RH  080%=      5-min Rain = 0
KTAS 261232Z 11012KT 12/09 A3024 RMK A01 T01230089  RH  080%=      5-min Rain = 0
KTAS 261233Z 11013KT 12/09 A3024 RMK A01 T01230089  RH  080%=      5-min Rain = 0
KTAS 261234Z 10013KT 12/09 A3024 RMK A01 T01240089  RH  079%=      5-min Rain = 0
KTAS 261235Z 11012KT 12/09 A3024 RMK A01 T01240089  RH  079%=      5-min Rain = 0
KTAS 261236Z 11014KT 12/09 A3024 RMK A01 T01240089  RH  079%=      5-min Rain = 0
KTAS 261237Z 11011KT 12/09 A3024 RMK A01 T01240089  RH  080%=      5-min Rain = 0
KTAS 261238Z 10011KT 12/09 A3024 RMK A01 T01230090  RH  080%=      5-min Rain = 0
KTAS 261239Z 11011KT 12/09 A3024 RMK A01 T01220089  RH  080%=      5-min Rain = 0
KTAS 261240Z 10012KT 12/09 A3024 RMK A01 T01220089  RH  080%=      5-min Rain = 0
KTAS 261241Z 11010KT 12/09 A3024 RMK A01 T01220090  RH  081%=      5-min Rain = 0
KTAS 261242Z 10010KT 12/09 A3024 RMK A01 T01220089  RH  081%=      5-min Rain = 0
KTAS 261243Z 11010KT 12/09 A3025 RMK A01 T01220089  RH  080%=      5-min Rain = 0
KTAS 261244Z 11009KT 12/09 A3025 RMK A01 T01220089  RH  080%=      5-min Rain = 0
KTAS 261245Z 11010KT 12/09 A3025 RMK A01 T01220089  RH  080%=      5-min Rain = 0
KTAS 261246Z 11009KT 12/09 A3025 RMK A01 T01230089  RH  080%=      5-min Rain = 0
KTAS 261247Z 10009KT 12/09 A3025 RMK A01 T01220089  RH  080%=      5-min Rain = 0
KTAS 261248Z 11010KT 12/09 A3025 RMK A01 T01230089  RH  080%=      5-min Rain = 0
KTAS 261249Z 11009KT 12/09 A3025 RMK A01 T01230089  RH  079%=      5-min Rain = 0
KTAS 261250Z 11011KT 12/09 A3025 RMK A01 T01230089  RH  080%=      5-min Rain = 0
KTAS 261251Z 11010KT 12/09 A3025 RMK A01 T01230089  RH  080%=      5-min Rain = 0
KTAS 261252Z 11009KT 12/09 A3025 RMK A01 T01230089  RH  079%=      5-min Rain = 0
KTAS 261253Z 11009KT 12/09 A3025 RMK A01 T01240089  RH  079%=      5-min Rain = 0
KTAS 261254Z 11010KT 12/09 A3025 RMK A01 T01240088  RH  079%=      5-min Rain = 0
KTAS 261255Z 11009KT 13/09 A3025 RMK A01 T01250088  RH  078%=      5-min Rain = 0
KTAS 261256Z 11008KT 13/09 A3025 RMK A01 T01250088  RH  078%=      5-min Rain = 0
KTAS 261257Z 11009KT 13/09 A3025 RMK A01 T01250087  RH  078%=      5-min Rain = 0
KTAS 261258Z 12006KT 13/09 A3025 RMK A01 T01250088  RH  078%=      5-min Rain = 0
KTAS 261259Z 11008KT 13/09 A3025 RMK A01 T01250088  RH  078%=      5-min Rain = 0
KTAS 261300Z 12008KT 13/09 A3025 RMK A01 T01250088  RH  078%=      5-min Rain = 0
KTAS 261301Z 12008KT 13/09 A3025 RMK A01 T01250089  RH  079%=      5-min Rain = 0
KTAS 261302Z 12008KT 13/09 A3025 RMK A01 T01260088  RH  078%=      5-min Rain = 0
KTAS 261303Z 13007KT 13/09 A3025 RMK A01 T01280089  RH  077%=      5-min Rain = 0
KTAS 261304Z 13007KT 13/09 A3025 RMK A01 T01290090  RH  077%=      5-min Rain = 0
KTAS 261305Z 13008KT 13/09 A3025 RMK A01 T01300091  RH  077%=      5-min Rain = 0
KTAS 261306Z 12009KT 13/09 A3025 RMK A01 T01300091  RH  077%=      5-min Rain = 0
KTAS 261307Z 12009KT 13/09 A3025 RMK A01 T01310091  RH  077%=      5-min Rain = 0
KTAS 261308Z 13008KT 13/09 A3025 RMK A01 T01320090  RH  076%=      5-min Rain = 0
KTAS 261309Z 13009KT 13/09 A3025 RMK A01 T01320091  RH  076%=      5-min Rain = 0
KTAS 261310Z 13009KT 13/09 A3025 RMK A01 T01320090  RH  076%=      5-min Rain = 0
KTAS 261311Z 13011KT 13/09 A3025 RMK A01 T01310089  RH  076%=      5-min Rain = 0
KTAS 261312Z 13009KT 13/09 A3025 RMK A01 T01310087  RH  075%=      5-min Rain = 0
KTAS 261313Z 13009KT 13/09 A3025 RMK A01 T01310088  RH  075%=      5-min Rain = 0
KTAS 261314Z 13008KT 13/09 A3025 RMK A01 T01300088  RH  076%=      5-min Rain = 0
KTAS 261315Z 13009KT 13/09 A3026 RMK A01 T01300089  RH  076%=      5-min Rain = 0
KTAS 261316Z 12008KT 13/09 A3026 RMK A01 T01300088  RH  076%=      5-min Rain = 0
KTAS 261317Z 12007KT 13/09 A3026 RMK A01 T01300088  RH  075%=      5-min Rain = 0
KTAS 261318Z 12006KT 13/09 A3026 RMK A01 T01300087  RH  075%=      5-min Rain = 0
KTAS 261319Z 13008KT 13/09 A3026 RMK A01 T01300089  RH  076%=      5-min Rain = 0
KTAS 261320Z 13009KT 13/09 A3026 RMK A01 T01300088  RH  076%=      5-min Rain = 0
KTAS 261321Z 12006KT 13/09 A3026 RMK A01 T01300088  RH  076%=      5-min Rain = 0
KTAS 261322Z 12006KT 13/09 A3027 RMK A01 T01300088  RH  076%=      5-min Rain = 0
KTAS 261323Z 12008KT 13/09 A3027 RMK A01 T01300088  RH  076%=      5-min Rain = 0
KTAS 261324Z 11006KT 13/09 A3027 RMK A01 T01300087  RH  075%=      5-min Rain = 0
KTAS 261325Z 11003KT 13/09 A3027 RMK A01 T01310088  RH  075%=      5-min Rain = 0
KTAS 261326Z 10004KT 13/09 A3027 RMK A01 T01320088  RH  075%=      5-min Rain = 0
KTAS 261327Z 10004KT 13/09 A3028 RMK A01 T01320089  RH  075%=      5-min Rain = 0
KTAS 261328Z 11002KT 13/09 A3028 RMK A01 T01320090  RH  076%=      5-min Rain = 0
KTAS 261329Z 10004KT 13/09 A3028 RMK A01 T01320089  RH  075%=      5-min Rain = 0
KTAS 261330Z 09003KT 13/09 A3028 RMK A01 T01330089  RH  074%=      5-min Rain = 0
KTAS 261331Z 09003KT 13/09 A3029 RMK A01 T01330086  RH  073%=      5-min Rain = 0
KTAS 261332Z 08004KT 13/09 A3029 RMK A01 T01330087  RH  073%=      5-min Rain = 0
KTAS 261333Z 05004KT 13/09 A3029 RMK A01 T01340088  RH  074%=      5-min Rain = 0
KTAS 261334Z 02005KT 13/09 A303 RMK A01 T01330089  RH  075%=      5-min Rain = 0
KTAS 261335Z 00007KT 13/09 A303 RMK A01 T01330089  RH  075%=      5-min Rain = 0
KTAS 261336Z 36011KT 13/09 A3031 RMK A01 T01330090  RH  075%=      5-min Rain = 0
KTAS 261337Z 00013KT 13/09 A3032 RMK A01 T01320090  RH  075%=      5-min Rain = 0
KTAS 261338Z 00015KT 13/09 A3032 RMK A01 T01320091  RH  076%=      5-min Rain = 0
KTAS 261339Z 00015KT 13/09 A3032 RMK A01 T01300093  RH  078%=      5-min Rain = 0
KTAS 261340Z 00015KT 13/10 A3032 RMK A01 T01280095  RH  080%=      5-min Rain = 0
KTAS 261341Z 01014G19KT 13/10 A3032 RMK A01 T01270095  RH  080%=      5-min Rain = 0
KTAS 261342Z 01012KT 13/09 A3032 RMK A01 T01270094  RH  080%=      5-min Rain = 0
KTAS 261343Z 03011KT 13/09 A3031 RMK A01 T01270094  RH  081%=      5-min Rain = 0
KTAS 261344Z 04009KT 13/09 A303 RMK A01 T01270094  RH  080%=      5-min Rain = 0
KTAS 261345Z 05008KT 13/09 A303 RMK A01 T01270094  RH  080%=      5-min Rain = 0
KTAS 261346Z 05010KT 13/10 A303 RMK A01 T01280095  RH  080%=      5-min Rain = 0
KTAS 261347Z 05009KT 13/09 A303 RMK A01 T01280094  RH  080%=      5-min Rain = 0
KTAS 261348Z 05008KT 13/10 A303 RMK A01 T01280095  RH  080%=      5-min Rain = 0
KTAS 261349Z 05010KT 13/10 A303 RMK A01 T01280095  RH  080%=      5-min Rain = 0
KTAS 261350Z 04010KT 13/10 A303 RMK A01 T01290096  RH  080%=      5-min Rain = 0
KTAS 261351Z 04013KT 13/10 A303 RMK A01 T01290095  RH  079%=      5-min Rain = 0
KTAS 261352Z 04013KT 13/10 A303 RMK A01 T01300095  RH  079%=      5-min Rain = 0
KTAS 261353Z 04011KT 13/09 A303 RMK A01 T01300094  RH  079%=      5-min Rain = 0
KTAS 261354Z 04012KT 13/09 A303 RMK A01 T01300094  RH  079%=      5-min Rain = 0
KTAS 261355Z 04012KT 13/10 A303 RMK A01 T01300095  RH  079%=      5-min Rain = 0
KTAS 261356Z 04011KT 13/10 A303 RMK A01 T01310096  RH  079%=      5-min Rain = 0
KTAS 261357Z 04010KT 13/10 A303 RMK A01 T01330097  RH  079%=      5-min Rain = 0
KTAS 261358Z 04009KT 14/10 A303 RMK A01 T01360099  RH  078%=      5-min Rain = 0
KTAS 261359Z 04010KT 14/10 A303 RMK A01 T01380099  RH  077%=      5-min Rain = 0
KTAS 261400Z 05011KT 14/10 A303 RMK A01 T01390099  RH  077%=      5-min Rain = 0
KTAS 261401Z 05013KT 14/10 A3029 RMK A01 T01400098  RH  076%=      5-min Rain = 0
KTAS 261402Z 05013KT 14/10 A3029 RMK A01 T01410096  RH  075%=      5-min Rain = 0
KTAS 261403Z 05013KT 14/10 A3029 RMK A01 T01400095  RH  074%=      5-min Rain = 0
KTAS 261404Z 06011KT 14/10 A3029 RMK A01 T01400095  RH  074%=      5-min Rain = 0
KTAS 261405Z 05011G16KT 14/10 A3029 RMK A01 T01410096  RH  074%=      5-min Rain = 0
KTAS 261406Z 05014KT 14/09 A3029 RMK A01 T01410094  RH  073%=      5-min Rain = 0
KTAS 261407Z 05014KT 14/09 A3029 RMK A01 T01400093  RH  073%=      5-min Rain = 0
KTAS 261408Z 05013KT 14/09 A3029 RMK A01 T01400092  RH  073%=      5-min Rain = 0
KTAS 261409Z 06012KT 14/09 A3029 RMK A01 T01410092  RH  072%=      5-min Rain = 0
KTAS 261410Z 06011KT 14/09 A3029 RMK A01 T01410090  RH  071%=      5-min Rain = 0
KTAS 261411Z 06012KT 14/09 A3029 RMK A01 T01430093  RH  072%=      5-min Rain = 0
KTAS 261412Z 06014KT 14/09 A3029 RMK A01 T01430087  RH  069%=      5-min Rain = 0
KTAS 261413Z 06014KT 14/09 A3029 RMK A01 T01430087  RH  069%=      5-min Rain = 0
KTAS 261414Z 06012KT 14/09 A3029 RMK A01 T01420085  RH  068%=      5-min Rain = 0
KTAS 261415Z 07016KT 14/09 A3029 RMK A01 T01430086  RH  068%=      5-min Rain = 0
KTAS 261416Z 07012G17KT 14/09 A3029 RMK A01 T01440085  RH  068%=      5-min Rain = 0
KTAS 261417Z 08013KT 15/09 A3029 RMK A01 T01460087  RH  068%=      5-min Rain = 0
KTAS 261418Z 07015KT 15/08 A3029 RMK A01 T01470084  RH  066%=      5-min Rain = 0
KTAS 261419Z 07016KT 15/08 A3028 RMK A01 T01450079  RH  065%=      5-min Rain = 0
KTAS 261420Z 08014KT 15/08 A3028 RMK A01 T01450080  RH  065%=      5-min Rain = 0
KTAS 261421Z 08013KT 15/08 A3028 RMK A01 T01470083  RH  065%=      5-min Rain = 0
KTAS 261422Z 08015KT 15/08 A3028 RMK A01 T01480080  RH  063%=      5-min Rain = 0
KTAS 261423Z 08013KT 15/08 A3028 RMK A01 T01480080  RH  063%=      5-min Rain = 0
KTAS 261424Z 08015KT 15/08 A3028 RMK A01 T01500080  RH  063%=      5-min Rain = 0
KTAS 261425Z 08016KT 15/07 A3028 RMK A01 T01490074  RH  061%=      5-min Rain = 0
KTAS 261426Z 09014KT 15/08 A3028 RMK A01 T01490075  RH  061%=      5-min Rain = 0
KTAS 261427Z 09011G16KT 15/08 A3028 RMK A01 T01520080  RH  062%=      5-min Rain = 0
KTAS 261428Z 09013KT 15/08 A3028 RMK A01 T01530079  RH  061%=      5-min Rain = 0
KTAS 261429Z 10011G17KT 15/08 A3028 RMK A01 T01520075  RH  060%=      5-min Rain = 0
KTAS 261430Z 10013KT 15/08 A3028 RMK A01 T01540077  RH  060%=      5-min Rain = 0
KTAS 261431Z 10015KT 15/07 A3028 RMK A01 T01520067  RH  057%=      5-min Rain = 0
KTAS 261432Z 10012KT 15/07 A3028 RMK A01 T01510068  RH  057%=      5-min Rain = 0
KTAS 261433Z 10015KT 15/07 A3028 RMK A01 T01530068  RH  057%=      5-min Rain = 0
KTAS 261434Z 09012KT 15/07 A3028 RMK A01 T01540066  RH  056%=      5-min Rain = 0
KTAS 261435Z 10012KT 16/07 A3028 RMK A01 T01550065  RH  055%=      5-min Rain = 0
KTAS 261436Z 09012KT 16/07 A3027 RMK A01 T01560069  RH  056%=      5-min Rain = 0
KTAS 261437Z 08012KT 16/07 A3027 RMK A01 T01580071  RH  056%=      5-min Rain = 0
KTAS 261438Z 09013KT 16/07 A3027 RMK A01 T01590073  RH  057%=      5-min Rain = 0
KTAS 261439Z 08014G21KT 16/07 A3027 RMK A01 T01590071  RH  056%=      5-min Rain = 0
KTAS 261440Z 08016KT 16/07 A3027 RMK A01 T01580071  RH  056%=      5-min Rain = 0
KTAS 261441Z 10012G17KT 16/07 A3027 RMK A01 T01580073  RH  057%=      5-min Rain = 0
KTAS 261442Z 10014KT 16/07 A3027 RMK A01 T01570071  RH  057%=      5-min Rain = 0
KTAS 261443Z 11012KT 16/07 A3027 RMK A01 T01560070  RH  056%=      5-min Rain = 0
KTAS 261444Z 09014KT 16/07 A3027 RMK A01 T01560068  RH  056%=      5-min Rain = 0
KTAS 261445Z 10013KT 16/07 A3027 RMK A01 T01550068  RH  056%=      5-min Rain = 0
KTAS 261446Z 11016KT 16/07 A3027 RMK A01 T01550070  RH  057%=      5-min Rain = 0
KTAS 261447Z 10012KT 15/07 A3027 RMK A01 T01540071  RH  058%=      5-min Rain = 0
KTAS 261448Z 10013G19KT 16/07 A3027 RMK A01 T01560072  RH  057%=      5-min Rain = 0
KTAS 261449Z 10017KT 16/07 A3027 RMK A01 T01550070  RH  057%=      5-min Rain = 0
KTAS 261450Z 09012G18KT 15/07 A3027 RMK A01 T01530071  RH  058%=      5-min Rain = 0
KTAS 261451Z 10010KT 15/08 A3027 RMK A01 T01530075  RH  060%=      5-min Rain = 0
KTAS 261452Z 10014KT 16/08 A3027 RMK A01 T01560080  RH  060%=      5-min Rain = 0
KTAS 261453Z 09013KT 15/07 A3027 RMK A01 T01530070  RH  058%=      5-min Rain = 0
KTAS 261454Z 09012KT 15/07 A3027 RMK A01 T01500070  RH  059%=      5-min Rain = 0
KTAS 261455Z 10008KT 15/07 A3026 RMK A01 T01480070  RH  059%=      5-min Rain = 0
KTAS 261456Z 10012KT 15/07 A3026 RMK A01 T01470071  RH  060%=      5-min Rain = 0
KTAS 261457Z 10015KT 15/07 A3026 RMK A01 T01480068  RH  059%=      5-min Rain = 0
KTAS 261458Z 09013KT 15/07 A3027 RMK A01 T01490065  RH  057%=      5-min Rain = 0
KTAS 261459Z 10014KT 15/07 A3027 RMK A01 T01520068  RH  057%=      5-min Rain = 0
KTAS 261500Z 10016KT 15/07 A3026 RMK A01 T01530067  RH  056%=      5-min Rain = 0
KTAS 261501Z 10017KT 15/07 A3026 RMK A01 T01540065  RH  055%=      5-min Rain = 0
KTAS 261502Z 09016KT 16/07 A3026 RMK A01 T01550066  RH  056%=      5-min Rain = 0
KTAS 261503Z 09015KT 16/07 A3026 RMK A01 T01550068  RH  056%=      5-min Rain = 0
KTAS 261504Z 10014KT 16/07 A3026 RMK A01 T01560070  RH  057%=      5-min Rain = 0
KTAS 261505Z 11013KT 16/07 A3026 RMK A01 T01580072  RH  057%=      5-min Rain = 0
KTAS 261506Z 11014KT 16/07 A3026 RMK A01 T01580070  RH  056%=      5-min Rain = 0
KTAS 261507Z 10013KT 16/07 A3026 RMK A01 T01590071  RH  056%=      5-min Rain = 0
KTAS 261508Z 11015KT 16/07 A3026 RMK A01 T01600074  RH  056%=      5-min Rain = 0
KTAS 261509Z 10012G17KT 16/07 A3026 RMK A01 T01610073  RH  056%=      5-min Rain = 0
KTAS 261510Z 11012KT 16/08 A3026 RMK A01 T01640078  RH  057%=      5-min Rain = 0
KTAS 261511Z 11016KT 17/08 A3026 RMK A01 T01660078  RH  056%=      5-min Rain = 0
KTAS 261512Z 10018KT 16/07 A3026 RMK A01 T01620070  RH  054%=      5-min Rain = 0
KTAS 261513Z 11019KT 16/07 A3026 RMK A01 T01600069  RH  055%=      5-min Rain = 0
KTAS 261514Z 11016KT 16/07 A3026 RMK A01 T01580070  RH  056%=      5-min Rain = 0
KTAS 261515Z 10017KT 16/07 A3026 RMK A01 T01590071  RH  056%=      5-min Rain = 0
KTAS 261516Z 11016KT 16/07 A3026 RMK A01 T01590071  RH  056%=      5-min Rain = 0
KTAS 261517Z 10013G18KT 16/07 A3026 RMK A01 T01590069  RH  055%=      5-min Rain = 0
KTAS 261518Z 11014KT 16/08 A3026 RMK A01 T01620075  RH  056%=      5-min Rain = 0
KTAS 261519Z 11015KT 16/07 A3026 RMK A01 T01630071  RH  054%=      5-min Rain = 0
KTAS 261520Z 11011KT 16/07 A3026 RMK A01 T01640073  RH  055%=      5-min Rain = 0
KTAS 261521Z 12012KT 17/08 A3026 RMK A01 T01680076  RH  054%=      5-min Rain = 0
KTAS 261522Z 12013KT 17/07 A3026 RMK A01 T01700074  RH  053%=      5-min Rain = 0
KTAS 261523Z 11013KT 17/07 A3026 RMK A01 T01690072  RH  053%=      5-min Rain = 0
KTAS 261524Z 12014KT 17/07 A3026 RMK A01 T01680073  RH  053%=      5-min Rain = 0
KTAS 261525Z 11014KT 17/07 A3026 RMK A01 T01680071  RH  053%=      5-min Rain = 0
KTAS 261526Z 11018KT 17/07 A3026 RMK A01 T01670068  RH  052%=      5-min Rain = 0
KTAS 261527Z 10017KT 16/06 A3026 RMK A01 T01640062  RH  051%=      5-min Rain = 0
KTAS 261528Z 10015KT 16/07 A3026 RMK A01 T01640065  RH  052%=      5-min Rain = 0
KTAS 261529Z 11016KT 17/07 A3026 RMK A01 T01660065  RH  051%=      5-min Rain = 0
KTAS 261530Z 12013KT 17/06 A3026 RMK A01 T01660064  RH  051%=      5-min Rain = 0
KTAS 261531Z 11016KT 17/07 A3026 RMK A01 T01700069  RH  051%=      5-min Rain = 0
KTAS 261532Z 12017KT 17/07 A3026 RMK A01 T01710065  RH  050%=      5-min Rain = 0
KTAS 261533Z 11016KT 17/06 A3026 RMK A01 T01710063  RH  049%=      5-min Rain = 0
KTAS 261534Z 11014KT 17/07 A3026 RMK A01 T01720068  RH  050%=      5-min Rain = 0
KTAS 261535Z 12014KT 18/07 A3026 RMK A01 T01750073  RH  051%=      5-min Rain = 0
KTAS 261536Z 12016KT 18/07 A3026 RMK A01 T01750069  RH  050%=      5-min Rain = 0
KTAS 261537Z 11017KT 17/06 A3026 RMK A01 T01730060  RH  047%=      5-min Rain = 0
KTAS 261538Z 11018KT 17/06 A3026 RMK A01 T01700059  RH  048%=      5-min Rain = 0
KTAS 261539Z 10016G21KT 17/06 A3026 RMK A01 T01710062  RH  049%=      5-min Rain = 0
KTAS 261540Z 10015G20KT 17/07 A3025 RMK A01 T01720065  RH  049%=      5-min Rain = 0
KTAS 261541Z 10015KT 17/07 A3025 RMK A01 T01710066  RH  050%=      5-min Rain = 0
KTAS 261542Z 12015KT 17/07 A3025 RMK A01 T01700068  RH  051%=      5-min Rain = 0
KTAS 261543Z 12019KT 17/07 A3025 RMK A01 T01700065  RH  050%=      5-min Rain = 0
KTAS 261544Z 12016KT 17/06 A3025 RMK A01 T01670058  RH  048%=      5-min Rain = 0
KTAS 261545Z 11015KT 17/06 A3025 RMK A01 T01650060  RH  050%=      5-min Rain = 0
KTAS 261546Z 11013KT 17/06 A3025 RMK A01 T01670063  RH  050%=      5-min Rain = 0
KTAS 261547Z 11012KT 17/06 A3025 RMK A01 T01660064  RH  051%=      5-min Rain = 0
KTAS 261548Z 12013KT 17/07 A3025 RMK A01 T01650065  RH  051%=      5-min Rain = 0
KTAS 261549Z 12017KT 17/06 A3025 RMK A01 T01670063  RH  050%=      5-min Rain = 0
KTAS 261550Z 11015KT 17/06 A3025 RMK A01 T01670058  RH  049%=      5-min Rain = 0
KTAS 261551Z 11013KT 17/06 A3025 RMK A01 T01680059  RH  049%=      5-min Rain = 0
KTAS 261552Z 12012KT 17/06 A3025 RMK A01 T01670059  RH  049%=      5-min Rain = 0
KTAS 261553Z 13012KT 17/06 A3025 RMK A01 T01660062  RH  050%=      5-min Rain = 0
KTAS 261554Z 13012KT 17/07 A3025 RMK A01 T01660065  RH  051%=      5-min Rain = 0
KTAS 261555Z 12013KT 17/07 A3025 RMK A01 T01660065  RH  051%=      5-min Rain = 0
KTAS 261556Z 12014KT 17/06 A3025 RMK A01 T01660061  RH  050%=      5-min Rain = 0
KTAS 261557Z 12016KT 17/06 A3025 RMK A01 T01660058  RH  049%=      5-min Rain = 0
KTAS 261558Z 12015KT 16/05 A3025 RMK A01 T01630050  RH  047%=      5-min Rain = 0
KTAS 261559Z 12016KT 16/05 A3025 RMK A01 T01630052  RH  048%=      5-min Rain = 0
KTAS 261600Z 12015KT 16/05 A3025 RMK A01 T01630052  RH  048%=      5-min Rain = 0
KTAS 261601Z 12015KT 17/05 A3025 RMK A01 T01650054  RH  048%=      5-min Rain = 0
KTAS 261602Z 11016KT 17/05 A3025 RMK A01 T01650052  RH  047%=      5-min Rain = 0
KTAS 261603Z 11016KT 17/05 A3025 RMK A01 T01650052  RH  047%=      5-min Rain = 0
KTAS 261604Z 11013KT 17/05 A3025 RMK A01 T01650053  RH  047%=      5-min Rain = 0
KTAS 261605Z 10015KT 17/05 A3025 RMK A01 T01660054  RH  048%=      5-min Rain = 0
KTAS 261606Z 11012KT 17/06 A3025 RMK A01 T01690057  RH  048%=      5-min Rain = 0
KTAS 261607Z 11010KT 17/06 A3025 RMK A01 T01720061  RH  048%=      5-min Rain = 0
KTAS 261608Z 13013G18KT 18/06 A3025 RMK A01 T01750063  RH  048%=      5-min Rain = 0
KTAS 261609Z 13017KT 18/06 A3025 RMK A01 T01750057  RH  046%=      5-min Rain = 0
KTAS 261610Z 12018KT 17/06 A3025 RMK A01 T01740056  RH  046%=      5-min Rain = 0
KTAS 261611Z 12016KT 17/05 A3025 RMK A01 T01730054  RH  046%=      5-min Rain = 0
KTAS 261612Z 12013KT 17/05 A3025 RMK A01 T01720054  RH  046%=      5-min Rain = 0
KTAS 261613Z 12014KT 17/06 A3025 RMK A01 T01730058  RH  047%=      5-min Rain = 0
KTAS 261614Z 13014G19KT 17/06 A3025 RMK A01 T01730055  RH  046%=      5-min Rain = 0
KTAS 261615Z 12013KT 17/06 A3025 RMK A01 T01740055  RH  045%=      5-min Rain = 0
KTAS 261616Z 12010KT 17/05 A3025 RMK A01 T01730054  RH  046%=      5-min Rain = 0
KTAS 261617Z 12012KT 17/06 A3025 RMK A01 T01740060  RH  047%=      5-min Rain = 0
KTAS 261618Z 12015KT 17/06 A3025 RMK A01 T01730056  RH  046%=      5-min Rain = 0
KTAS 261619Z 13014KT 17/05 A3026 RMK A01 T01710053  RH  046%=      5-min Rain = 0
KTAS 261620Z 13015KT 17/05 A3026 RMK A01 T01690054  RH  047%=      5-min Rain = 0
KTAS 261621Z 12013G18KT 17/06 A3026 RMK A01 T01690057  RH  048%=      5-min Rain = 0
KTAS 261622Z 13013KT 17/06 A3026 RMK A01 T01690058  RH  048%=      5-min Rain = 0
KTAS 261623Z 12014KT 17/06 A3026 RMK A01 T01690058  RH  048%=      5-min Rain = 0
KTAS 261624Z 13013KT 17/05 A3026 RMK A01 T01670054  RH  047%=      5-min Rain = 0
KTAS 261625Z 13012KT 17/05 A3026 RMK A01 T01670054  RH  047%=      5-min Rain = 0
KTAS 261626Z 13014KT 17/06 A3026 RMK A01 T01690057  RH  047%=      5-min Rain = 0
KTAS 261627Z 12011KT 17/06 A3026 RMK A01 T01690056  RH  047%=      5-min Rain = 0
KTAS 261628Z 12009KT 17/06 A3026 RMK A01 T01720062  RH  048%=      5-min Rain = 0
KTAS 261629Z 12012KT 17/06 A3026 RMK A01 T01740060  RH  047%=      5-min Rain = 0
KTAS 261630Z 12013KT 18/06 A3026 RMK A01 T01760060  RH  047%=      5-min Rain = 0
KTAS 261631Z 13016KT 17/06 A3026 RMK A01 T01740055  RH  045%=      5-min Rain = 0
KTAS 261632Z 14016KT 17/05 A3026 RMK A01 T01720053  RH  046%=      5-min Rain = 0
KTAS 261633Z 13017KT 17/05 A3026 RMK A01 T01700053  RH  046%=      5-min Rain = 0
KTAS 261634Z 13016KT 17/05 A3025 RMK A01 T01690052  RH  046%=      5-min Rain = 0
KTAS 261635Z 12017KT 17/05 A3025 RMK A01 T01690053  RH  046%=      5-min Rain = 0
KTAS 261636Z 12015KT 17/05 A3025 RMK A01 T01700052  RH  046%=      5-min Rain = 0
KTAS 261637Z 12015KT 17/05 A3025 RMK A01 T01710054  RH  046%=      5-min Rain = 0
KTAS 261638Z 12013KT 17/06 A3025 RMK A01 T01730056  RH  046%=      5-min Rain = 0
KTAS 261639Z 12012KT 18/06 A3026 RMK A01 T01750057  RH  046%=      5-min Rain = 0
KTAS 261640Z 12010KT 17/06 A3026 RMK A01 T01740057  RH  046%=      5-min Rain = 0
KTAS 261641Z 11012KT 18/06 A3026 RMK A01 T01760059  RH  046%=      5-min Rain = 0
KTAS 261642Z 12013G18KT 18/06 A3026 RMK A01 T01780062  RH  046%=      5-min Rain = 0
KTAS 261643Z 12014KT 18/06 A3026 RMK A01 T01790057  RH  045%=      5-min Rain = 0
KTAS 261644Z 12012G17KT 18/06 A3026 RMK A01 T01780056  RH  045%=      5-min Rain = 0
KTAS 261645Z 11010KT 18/06 A3026 RMK A01 T01790062  RH  046%=      5-min Rain = 0
KTAS 261646Z 13010KT 18/06 A3026 RMK A01 T01820064  RH  046%=      5-min Rain = 0
KTAS 261647Z 13014KT 18/06 A3025 RMK A01 T01810058  RH  044%=      5-min Rain = 0
KTAS 261648Z 14016KT 18/06 A3025 RMK A01 T01820059  RH  044%=      5-min Rain = 0
KTAS 261649Z 12015G20KT 18/06 A3025 RMK A01 T01830061  RH  045%=      5-min Rain = 0
KTAS 261650Z 13016KT 18/06 A3025 RMK A01 T01840062  RH  045%=      5-min Rain = 0
KTAS 261651Z 13016KT 18/06 A3025 RMK A01 T01830059  RH  044%=      5-min Rain = 0
KTAS 261652Z 14014KT 18/06 A3025 RMK A01 T01810057  RH  044%=      5-min Rain = 0
KTAS 261653Z 13016KT 18/06 A3025 RMK A01 T01800058  RH  045%=      5-min Rain = 0
KTAS 261654Z 13014KT 18/06 A3025 RMK A01 T01780056  RH  045%=      5-min Rain = 0
KTAS 261655Z 13013KT 18/06 A3025 RMK A01 T01790061  RH  046%=      5-min Rain = 0
KTAS 261656Z 14015KT 18/07 A3025 RMK A01 T01820065  RH  046%=      5-min Rain = 0
KTAS 261657Z 12012KT 18/06 A3025 RMK A01 T01810061  RH  045%=      5-min Rain = 0
KTAS 261658Z 13012KT 18/06 A3025 RMK A01 T01820064  RH  046%=      5-min Rain = 0
KTAS 261659Z 13009KT 18/07 A3024 RMK A01 T01840067  RH  046%=      5-min Rain = 0
KTAS 261700Z 13011G16KT 19/07 A3024 RMK A01 T01850068  RH  046%=      5-min Rain = 0
KTAS 261701Z 14013KT 19/07 A3024 RMK A01 T01850065  RH  045%=      5-min Rain = 0
KTAS 261702Z 14015KT 19/07 A3024 RMK A01 T01860066  RH  045%=      5-min Rain = 0
KTAS 261703Z 14012KT 19/07 A3024 RMK A01 T01890070  RH  046%=      5-min Rain = 0
KTAS 261704Z 13012KT 19/07 A3024 RMK A01 T01910065  RH  044%=      5-min Rain = 0
KTAS 261705Z 13014G20KT 19/07 A3024 RMK A01 T01890065  RH  044%=      5-min Rain = 0
KTAS 261706Z 13013KT 19/07 A3024 RMK A01 T01920068  RH  044%=      5-min Rain = 0
KTAS 261707Z 13014KT 19/07 A3024 RMK A01 T01940068  RH  044%=      5-min Rain = 0
KTAS 261708Z 13015KT 19/06 A3024 RMK A01 T01920064  RH  043%=      5-min Rain = 0
KTAS 261709Z 13015KT 19/06 A3024 RMK A01 T01880060  RH  043%=      5-min Rain = 0
KTAS 261710Z 14014KT 19/06 A3024 RMK A01 T01850055  RH  043%=      5-min Rain = 0
KTAS 261711Z 14011KT 18/06 A3024 RMK A01 T01830056  RH  043%=      5-min Rain = 0
KTAS 261712Z 11012KT 18/06 A3024 RMK A01 T01830059  RH  044%=      5-min Rain = 0
KTAS 261713Z 12015KT 18/06 A3024 RMK A01 T01810056  RH  044%=      5-min Rain = 0
KTAS 261714Z 13013G19KT 18/06 A3024 RMK A01 T01810060  RH  045%=      5-min Rain = 0
KTAS 261715Z 13016KT 18/06 A3024 RMK A01 T01810059  RH  044%=      5-min Rain = 0
KTAS 261716Z 14012KT 18/06 A3024 RMK A01 T01810058  RH  045%=      5-min Rain = 0
KTAS 261717Z 13010KT 18/06 A3024 RMK A01 T01810056  RH  044%=      5-min Rain = 0
KTAS 261718Z 13010KT 18/06 A3024 RMK A01 T01810060  RH  045%=      5-min Rain = 0
KTAS 261719Z 13014KT 18/07 A3024 RMK A01 T01840066  RH  046%=      5-min Rain = 0
KTAS 261720Z 14011KT 19/06 A3024 RMK A01 T01860064  RH  045%=      5-min Rain = 0
KTAS 261721Z 14011G16KT 19/06 A3024 RMK A01 T01860063  RH  045%=      5-min Rain = 0
KTAS 261722Z 14014KT 19/06 A3024 RMK A01 T01860061  RH  044%=      5-min Rain = 0
KTAS 261723Z 12009KT 19/06 A3024 RMK A01 T01870062  RH  044%=      5-min Rain = 0
KTAS 261724Z 13007KT 19/07 A3024 RMK A01 T01880067  RH  045%=      5-min Rain = 0
KTAS 261725Z 13015KT 19/07 A3024 RMK A01 T01900066  RH  044%=      5-min Rain = 0
KTAS 261726Z 12013KT 19/06 A3024 RMK A01 T01910063  RH  043%=      5-min Rain = 0
KTAS 261727Z 12011KT 19/06 A3024 RMK A01 T01890058  RH  042%=      5-min Rain = 0
KTAS 261728Z 12011KT 19/06 A3024 RMK A01 T01890060  RH  043%=      5-min Rain = 0
KTAS 261729Z 13013KT 19/07 A3024 RMK A01 T01920065  RH  044%=      5-min Rain = 0
KTAS 261730Z 13011KT 19/06 A3024 RMK A01 T01940063  RH  042%=      5-min Rain = 0
KTAS 261731Z 14016KT 20/06 A3024 RMK A01 T01950058  RH  041%=      5-min Rain = 0
KTAS 261732Z 14013KT 19/05 A3023 RMK A01 T01910052  RH  040%=      5-min Rain = 0
KTAS 261733Z 14011KT 19/05 A3023 RMK A01 T01900054  RH  041%=      5-min Rain = 0
KTAS 261734Z 13013KT 19/06 A3023 RMK A01 T01930060  RH  042%=      5-min Rain = 0
KTAS 261735Z 13012KT 19/06 A3023 RMK A01 T01930058  RH  041%=      5-min Rain = 0
KTAS 261736Z 12011KT 19/06 A3023 RMK A01 T01930056  RH  040%=      5-min Rain = 0
KTAS 261737Z 12010KT 19/05 A3023 RMK A01 T01910054  RH  040%=      5-min Rain = 0
KTAS 261738Z 14010KT 19/06 A3023 RMK A01 T01920056  RH  041%=      5-min Rain = 0
KTAS 261739Z 13013KT 19/06 A3023 RMK A01 T01930056  RH  040%=      5-min Rain = 0
KTAS 261740Z 13017KT 19/06 A3023 RMK A01 T01930056  RH  040%=      5-min Rain = 0
KTAS 261741Z 12014KT 19/05 A3023 RMK A01 T01900049  RH  040%=      5-min Rain = 0
KTAS 261742Z 13012KT 19/05 A3023 RMK A01 T01880052  RH  041%=      5-min Rain = 0
KTAS 261743Z 14013KT 19/06 A3023 RMK A01 T01900058  RH  042%=      5-min Rain = 0
KTAS 261744Z 15012KT 19/06 A3022 RMK A01 T01940061  RH  042%=      5-min Rain = 0
KTAS 261745Z 14015KT 20/06 A3022 RMK A01 T01960057  RH  040%=      5-min Rain = 0
KTAS 261746Z 13014G19KT 20/06 A3022 RMK A01 T01960055  RH  040%=      5-min Rain = 0
KTAS 261747Z 14016KT 20/05 A3022 RMK A01 T01960053  RH  039%=      5-min Rain = 0
KTAS 261748Z 14012KT 20/05 A3022 RMK A01 T01950054  RH  039%=      5-min Rain = 0
KTAS 261749Z 14013KT 20/06 A3022 RMK A01 T01970058  RH  040%=      5-min Rain = 0
KTAS 261750Z 15014KT 20/06 A3022 RMK A01 T01990055  RH  039%=      5-min Rain = 0
KTAS 261751Z 14012KT 20/05 A3022 RMK A01 T01990052  RH  038%=      5-min Rain = 0
KTAS 261752Z 14013KT 20/06 A3022 RMK A01 T01990055  RH  039%=      5-min Rain = 0
KTAS 261753Z 13014KT 20/06 A3022 RMK A01 T02010057  RH  039%=      5-min Rain = 0
KTAS 261754Z 13015KT 20/06 A3022 RMK A01 T02030061  RH  040%=      5-min Rain = 0
KTAS 261755Z 12014G19KT 20/06 A3022 RMK A01 T02020055  RH  038%=      5-min Rain = 0
KTAS 261756Z 13011KT 20/05 A3022 RMK A01 T01990053  RH  038%=      5-min Rain = 0
KTAS 261757Z 14012KT 20/06 A3022 RMK A01 T02030062  RH  040%=      5-min Rain = 0
KTAS 261758Z 13016KT 20/06 A3022 RMK A01 T02040057  RH  038%=      5-min Rain = 0
KTAS 261759Z 14014KT 21/06 A3022 RMK A01 T02050060  RH  039%=      5-min Rain = 0
KTAS 261800Z 12013KT 20/06 A3022 RMK A01 T02040058  RH  039%=      5-min Rain = 0
KTAS 261801Z 13016KT 20/06 A3022 RMK A01 T02040060  RH  039%=      5-min Rain = 0
KTAS 261802Z 13013KT 20/06 A3022 RMK A01 T02030056  RH  038%=      5-min Rain = 0
KTAS 261803Z 14016KT 20/05 A3021 RMK A01 T02030053  RH  037%=      5-min Rain = 0
KTAS 261804Z 14013KT 20/05 A3021 RMK A01 T02020052  RH  037%=      5-min Rain = 0
KTAS 261805Z 14015KT 20/05 A3021 RMK A01 T02020054  RH  038%=      5-min Rain = 0
KTAS 261806Z 14015KT 20/05 A3021 RMK A01 T02010053  RH  038%=      5-min Rain = 0
KTAS 261807Z 13010KT 20/06 A3021 RMK A01 T02000056  RH  039%=      5-min Rain = 0
KTAS 261808Z 13015KT 20/06 A3021 RMK A01 T02030060  RH  039%=      5-min Rain = 0
KTAS 261809Z 14013KT 20/06 A3021 RMK A01 T02030055  RH  038%=      5-min Rain = 0
KTAS 261810Z 14015KT 20/06 A3021 RMK A01 T02040058  RH  038%=      5-min Rain = 0
KTAS 261811Z 13013KT 20/06 A3021 RMK A01 T02040055  RH  038%=      5-min Rain = 0
KTAS 261812Z 15011KT 21/07 A3021 RMK A01 T02060065  RH  040%=      5-min Rain = 0
KTAS 261813Z 15010KT 21/06 A3021 RMK A01 T02070061  RH  038%=      5-min Rain = 0
KTAS 261814Z 15013KT 21/06 A3021 RMK A01 T02090063  RH  039%=      5-min Rain = 0
KTAS 261815Z 14012KT 21/06 A3021 RMK A01 T02090059  RH  038%=      5-min Rain = 0
KTAS 261816Z 13015KT 21/06 A3021 RMK A01 T02110064  RH  038%=      5-min Rain = 0
KTAS 261817Z 14014KT 21/06 A3021 RMK A01 T02100057  RH  037%=      5-min Rain = 0
KTAS 261818Z 12014KT 21/06 A3021 RMK A01 T02090057  RH  037%=      5-min Rain = 0
KTAS 261819Z 13013KT 21/06 A3021 RMK A01 T02080061  RH  038%=      5-min Rain = 0
KTAS 261820Z 14011KT 21/06 A3021 RMK A01 T02090059  RH  038%=      5-min Rain = 0
KTAS 261821Z 14014KT 21/05 A3021 RMK A01 T02070054  RH  037%=      5-min Rain = 0
KTAS 261822Z 13015KT 20/05 A3021 RMK A01 T02030051  RH  037%=      5-min Rain = 0
KTAS 261823Z 13015KT 20/05 A302 RMK A01 T02030054  RH  038%=      5-min Rain = 0
KTAS 261824Z 13015KT 20/05 A302 RMK A01 T02020052  RH  038%=      5-min Rain = 0
KTAS 261825Z 13014KT 20/05 A302 RMK A01 T01980048  RH  037%=      5-min Rain = 0
KTAS 261826Z 13017KT 20/05 A302 RMK A01 T01990053  RH  038%=      5-min Rain = 0
KTAS 261827Z 14013KT 20/06 A302 RMK A01 T02010055  RH  039%=      5-min Rain = 0
KTAS 261828Z 13014KT 20/06 A302 RMK A01 T02040058  RH  039%=      5-min Rain = 0
KTAS 261829Z 14016KT 21/05 A302 RMK A01 T02050053  RH  037%=      5-min Rain = 0
KTAS 261830Z 14016KT 20/05 A302 RMK A01 T02020046  RH  036%=      5-min Rain = 0
KTAS 261831Z 14015KT 20/05 A302 RMK A01 T02000048  RH  037%=      5-min Rain = 0
KTAS 261832Z 14017KT 20/05 A302 RMK A01 T01990048  RH  037%=      5-min Rain = 0
KTAS 261833Z 14016KT 20/05 A302 RMK A01 T01960046  RH  037%=      5-min Rain = 0
KTAS 261834Z 13014KT 20/05 A302 RMK A01 T01950047  RH  038%=      5-min Rain = 0
KTAS 261835Z 13013KT 20/05 A302 RMK A01 T01960054  RH  039%=      5-min Rain = 0
KTAS 261836Z 15015KT 20/05 A302 RMK A01 T01980050  RH  038%=      5-min Rain = 0
KTAS 261837Z 14013KT 20/05 A302 RMK A01 T01970046  RH  037%=      5-min Rain = 0
KTAS 261838Z 14014KT 20/05 A302 RMK A01 T01970051  RH  038%=      5-min Rain = 0
KTAS 261839Z 14014KT 20/06 A302 RMK A01 T02000056  RH  039%=      5-min Rain = 0
KTAS 261840Z 14014KT 20/05 A3019 RMK A01 T02010052  RH  038%=      5-min Rain = 0
KTAS 261841Z 14013KT 20/06 A3019 RMK A01 T02010056  RH  039%=      5-min Rain = 0
KTAS 261842Z 15012KT 20/05 A3019 RMK A01 T01990050  RH  038%=      5-min Rain = 0
KTAS 261843Z 15014KT 20/06 A3019 RMK A01 T01990055  RH  039%=      5-min Rain = 0
KTAS 261844Z 15010KT 20/06 A3019 RMK A01 T02020056  RH  039%=      5-min Rain = 0
KTAS 261845Z 15013G18KT 21/06 A3019 RMK A01 T02050059  RH  039%=      5-min Rain = 0
KTAS 261846Z 15016KT 21/06 A3019 RMK A01 T02080059  RH  038%=      5-min Rain = 0
KTAS 261847Z 14015G21KT 21/06 A3019 RMK A01 T02080057  RH  037%=      5-min Rain = 0
KTAS 261848Z 15012KT 21/06 A3019 RMK A01 T02080059  RH  038%=      5-min Rain = 0
KTAS 261849Z 14015KT 21/06 A3019 RMK A01 T02100059  RH  037%=      5-min Rain = 0
KTAS 261850Z 14013KT 21/06 A3019 RMK A01 T02110058  RH  037%=      5-min Rain = 0
KTAS 261851Z 13013KT 21/06 A3019 RMK A01 T02110061  RH  038%=      5-min Rain = 0
KTAS 261852Z 13016KT 21/06 A3019 RMK A01 T02100057  RH  037%=      5-min Rain = 0
KTAS 261853Z 14012G17KT 21/06 A3019 RMK A01 T02080055  RH  037%=      5-min Rain = 0
KTAS 261854Z 14014KT 21/06 A3018 RMK A01 T02090059  RH  037%=      5-min Rain = 0
KTAS 261855Z 15015KT 21/06 A3018 RMK A01 T02110057  RH  037%=      5-min Rain = 0
KTAS 261856Z 15012KT 21/05 A3018 RMK A01 T02090053  RH  036%=      5-min Rain = 0
KTAS 261857Z 16015G21KT 21/06 A3018 RMK A01 T02100058  RH  037%=      5-min Rain = 0
KTAS 261858Z 12013KT 21/06 A3018 RMK A01 T02130063  RH  038%=      5-min Rain = 0
KTAS 261859Z 14016KT 21/06 A3018 RMK A01 T02130056  RH  036%=      5-min Rain = 0
KTAS 261900Z 13014KT 21/05 A3018 RMK A01 T02110050  RH  035%=      5-min Rain = 0
KTAS 261901Z 13016KT 21/06 A3018 RMK A01 T02110055  RH  036%=      5-min Rain = 0
KTAS 261902Z 13013G18KT 21/05 A3018 RMK A01 T02100052  RH  035%=      5-min Rain = 0
KTAS 261903Z 15015G20KT 21/05 A3018 RMK A01 T02100054  RH  036%=      5-min Rain = 0
KTAS 261904Z 15018G23KT 21/05 A3018 RMK A01 T02110050  RH  035%=      5-min Rain = 0
KTAS 261905Z 15015KT 21/06 A3018 RMK A01 T02130055  RH  036%=      5-min Rain = 0
KTAS 261906Z 15015KT 21/05 A3018 RMK A01 T02130053  RH  035%=      5-min Rain = 0
KTAS 261907Z 14014KT 22/06 A3018 RMK A01 T02150055  RH  035%=      5-min Rain = 0
KTAS 261908Z 15013KT 22/05 A3018 RMK A01 T02160053  RH  035%=      5-min Rain = 0
KTAS 261909Z 15016G21KT 22/05 A3018 RMK A01 T02170054  RH  035%=      5-min Rain = 0
KTAS 261910Z 15015KT 22/06 A3018 RMK A01 T02170055  RH  035%=      5-min Rain = 0
KTAS 261911Z 15014G19KT 22/05 A3018 RMK A01 T02160050  RH  034%=      5-min Rain = 0
KTAS 261912Z 15014KT 21/05 A3018 RMK A01 T02140049  RH  034%=      5-min Rain = 0
KTAS 261913Z 16015KT 21/05 A3018 RMK A01 T02140051  RH  035%=      5-min Rain = 0
KTAS 261914Z 16014G19KT 21/05 A3017 RMK A01 T02110045  RH  034%=      5-min Rain = 0
KTAS 261915Z 16013KT 21/06 A3017 RMK A01 T02120055  RH  036%=      5-min Rain = 0
KTAS 261916Z 15017G24KT 21/05 A3017 RMK A01 T02130052  RH  035%=      5-min Rain = 0
KTAS 261917Z 14014KT 22/06 A3017 RMK A01 T02160057  RH  035%=      5-min Rain = 0
KTAS 261918Z 16015G20KT 22/05 A3017 RMK A01 T02160054  RH  035%=      5-min Rain = 0
KTAS 261919Z 15014KT 22/05 A3017 RMK A01 T02160053  RH  034%=      5-min Rain = 0
KTAS 261920Z 15014G19KT 22/05 A3017 RMK A01 T02160049  RH  034%=      5-min Rain = 0
KTAS 261921Z 15014G20KT 21/05 A3017 RMK A01 T02140047  RH  034%=      5-min Rain = 0
KTAS 261922Z 15017KT 22/05 A3017 RMK A01 T02150053  RH  035%=      5-min Rain = 0
KTAS 261923Z 15012KT 22/05 A3017 RMK A01 T02150051  RH  034%=      5-min Rain = 0
KTAS 261924Z 14015KT 22/05 A3017 RMK A01 T02160053  RH  035%=      5-min Rain = 0
KTAS 261925Z 14015G20KT 22/06 A3017 RMK A01 T02150056  RH  035%=      5-min Rain = 0
KTAS 261926Z 14016KT 22/05 A3017 RMK A01 T02150052  RH  035%=      5-min Rain = 0
KTAS 261927Z 14013KT 22/06 A3017 RMK A01 T02150056  RH  035%=      5-min Rain = 0
KTAS 261928Z 13017KT 22/06 A3017 RMK A01 T02170058  RH  035%=      5-min Rain = 0
KTAS 261929Z 12013KT 22/06 A3017 RMK A01 T02170060  RH  036%=      5-min Rain = 0
KTAS 261930Z 13015G21KT 22/06 A3016 RMK A01 T02180059  RH  036%=      5-min Rain = 0
KTAS 261931Z 14017KT 22/06 A3016 RMK A01 T02180055  RH  035%=      5-min Rain = 0
KTAS 261932Z 15014KT 22/06 A3017 RMK A01 T02170057  RH  035%=      5-min Rain = 0
KTAS 261933Z 14012KT 22/06 A3016 RMK A01 T02190062  RH  036%=      5-min Rain = 0
KTAS 261934Z 15010KT 22/06 A3016 RMK A01 T02210064  RH  036%=      5-min Rain = 0
KTAS 261935Z 13013G18KT 22/06 A3016 RMK A01 T02220064  RH  036%=      5-min Rain = 0
KTAS 261936Z 13017KT 22/06 A3016 RMK A01 T02210062  RH  036%=      5-min Rain = 0
KTAS 261937Z 14014G19KT 22/06 A3016 RMK A01 T02180059  RH  036%=      5-min Rain = 0
KTAS 261938Z 15011KT 22/06 A3016 RMK A01 T02180061  RH  036%=      5-min Rain = 0
KTAS 261939Z 15014KT 22/06 A3016 RMK A01 T02200063  RH  036%=      5-min Rain = 0
KTAS 261940Z 14016KT 22/06 A3016 RMK A01 T02210061  RH  035%=      5-min Rain = 0
KTAS 261941Z 14013KT 22/06 A3016 RMK A01 T02210060  RH  035%=      5-min Rain = 0
KTAS 261942Z 13015KT 22/06 A3016 RMK A01 T02200060  RH  035%=      5-min Rain = 0
KTAS 261943Z 13018KT 22/06 A3016 RMK A01 T02190058  RH  035%=      5-min Rain = 0
KTAS 261944Z 14014G19KT 22/06 A3016 RMK A01 T02170058  RH  036%=      5-min Rain = 0
KTAS 261945Z 15012KT 22/07 A3016 RMK A01 T02200066  RH  037%=      5-min Rain = 0
KTAS 261946Z 15009KT 22/06 A3016 RMK A01 T02220064  RH  036%=      5-min Rain = 0
KTAS 261947Z 15012KT 22/06 A3015 RMK A01 T02210062  RH  035%=      5-min Rain = 0
KTAS 261948Z 13015KT 22/06 A3015 RMK A01 T02210064  RH  036%=      5-min Rain = 0
KTAS 261949Z 14014KT 22/06 A3015 RMK A01 T02190062  RH  036%=      5-min Rain = 0
KTAS 261950Z 15013KT 22/06 A3015 RMK A01 T02180061  RH  036%=      5-min Rain = 0
KTAS 261951Z 15011KT 22/06 A3015 RMK A01 T02170058  RH  036%=      5-min Rain = 0
KTAS 261952Z 15013KT 22/06 A3015 RMK A01 T02170060  RH  036%=      5-min Rain = 0
KTAS 261953Z 14014KT 22/06 A3015 RMK A01 T02170056  RH  035%=      5-min Rain = 0
KTAS 261954Z 13010KT 22/06 A3015 RMK A01 T02180063  RH  037%=      5-min Rain = 0
KTAS 261955Z 14015KT 22/07 A3015 RMK A01 T02220069  RH  037%=      5-min Rain = 0
KTAS 261956Z 15012KT 22/06 A3015 RMK A01 T02220057  RH  034%=      5-min Rain = 0
KTAS 261957Z 15011KT 22/06 A3015 RMK A01 T02210060  RH  035%=      5-min Rain = 0
KTAS 261958Z 14009KT 22/06 A3015 RMK A01 T02220060  RH  035%=      5-min Rain = 0
KTAS 261959Z 14014KT 23/06 A3015 RMK A01 T02250063  RH  035%=      5-min Rain = 0
KTAS 262000Z 14014G20KT 23/07 A3015 RMK A01 T02270066  RH  035%=      5-min Rain = 0
KTAS 262001Z 14015G20KT 23/06 A3015 RMK A01 T02270060  RH  034%=      5-min Rain = 0
KTAS 262002Z 15015KT 23/06 A3015 RMK A01 T02250058  RH  034%=      5-min Rain = 0
KTAS 262003Z 14012KT 22/06 A3015 RMK A01 T02220057  RH  034%=      5-min Rain = 0
KTAS 262004Z 13014KT 22/06 A3015 RMK A01 T02200059  RH  035%=      5-min Rain = 0
KTAS 262005Z 14012G17KT 22/06 A3015 RMK A01 T02190061  RH  036%=      5-min Rain = 0
KTAS 262006Z 12013KT 22/06 A3014 RMK A01 T02210063  RH  036%=      5-min Rain = 0
KTAS 262007Z 14013KT 22/06 A3014 RMK A01 T02210061  RH  035%=      5-min Rain = 0
KTAS 262008Z 14011KT 22/06 A3014 RMK A01 T02210061  RH  035%=      5-min Rain = 0
KTAS 262009Z 14016KT 22/06 A3014 RMK A01 T02240062  RH  035%=      5-min Rain = 0
KTAS 262010Z 15014KT 23/06 A3014 RMK A01 T02260064  RH  035%=      5-min Rain = 0
KTAS 262011Z 15014KT 23/07 A3014 RMK A01 T02270066  RH  035%=      5-min Rain = 0
KTAS 262012Z 15013KT 23/07 A3014 RMK A01 T02270065  RH  035%=      5-min Rain = 0
KTAS 262013Z 14013G19KT 23/06 A3014 RMK A01 T02270064  RH  035%=      5-min Rain = 0
KTAS 262014Z 14014KT 23/06 A3014 RMK A01 T02250062  RH  035%=      5-min Rain = 0
KTAS 262015Z 15013KT 23/07 A3014 RMK A01 T02250065  RH  035%=      5-min Rain = 0
KTAS 262016Z 14012KT 23/07 A3014 RMK A01 T02270065  RH  035%=      5-min Rain = 0
KTAS 262017Z 15011KT 23/07 A3014 RMK A01 T02270068  RH  036%=      5-min Rain = 0
KTAS 262018Z 15011KT 23/07 A3014 RMK A01 T02280070  RH  036%=      5-min Rain = 0
KTAS 262019Z 16014G22KT 23/07 A3013 RMK A01 T02300073  RH  037%=      5-min Rain = 0
KTAS 262020Z 16012KT 23/07 A3013 RMK A01 T02290067  RH  035%=      5-min Rain = 0
KTAS 262021Z 16010G15KT 23/07 A3013 RMK A01 T02260066  RH  035%=      5-min Rain = 0
KTAS 262022Z 14012KT 23/07 A3013 RMK A01 T02270072  RH  037%=      5-min Rain = 0
KTAS 262023Z 14015G20KT 23/07 A3013 RMK A01 T02280066  RH  035%=      5-min Rain = 0
KTAS 262024Z 13015KT 23/06 A3013 RMK A01 T02260064  RH  035%=      5-min Rain = 0
KTAS 262025Z 15015KT 23/07 A3013 RMK A01 T02280071  RH  036%=      5-min Rain = 0
KTAS 262026Z 17017KT 23/07 A3013 RMK A01 T02290066  RH  035%=      5-min Rain = 0
KTAS 262027Z 17014KT 23/06 A3013 RMK A01 T02270064  RH  035%=      5-min Rain = 0
KTAS 262028Z 17010KT 23/07 A3013 RMK A01 T02250066  RH  036%=      5-min Rain = 0
KTAS 262029Z 15011KT 23/07 A3013 RMK A01 T02270073  RH  037%=      5-min Rain = 0
KTAS 262030Z 13011KT 23/07 A3013 RMK A01 T02290068  RH  035%=      5-min Rain = 0
KTAS 262031Z 15012KT 23/07 A3013 RMK A01 T02290067  RH  035%=      5-min Rain = 0
KTAS 262032Z 16017KT 23/07 A3013 RMK A01 T02310072  RH  036%=      5-min Rain = 0
KTAS 262033Z 16015KT 23/07 A3013 RMK A01 T02310066  RH  034%=      5-min Rain = 0
KTAS 262034Z 15013KT 23/07 A3013 RMK A01 T02300066  RH  035%=      5-min Rain = 0
KTAS 262035Z 17012KT 23/07 A3013 RMK A01 T02300067  RH  035%=      5-min Rain = 0
KTAS 262036Z 17012KT 23/07 A3013 RMK A01 T02290069  RH  036%=      5-min Rain = 0
KTAS 262037Z 16011KT 23/07 A3013 RMK A01 T02290072  RH  036%=      5-min Rain = 0
KTAS 262038Z 15014KT 23/08 A3013 RMK A01 T02330079  RH  037%=      5-min Rain = 0
KTAS 262039Z 16015KT 23/07 A3013 RMK A01 T02330067  RH  034%=      5-min Rain = 0
KTAS 262040Z 15010KT 23/07 A3013 RMK A01 T02310066  RH  035%=      5-min Rain = 0
KTAS 262041Z 14014KT 23/07 A3012 RMK A01 T02300065  RH  034%=      5-min Rain = 0
KTAS 262042Z 17015KT 23/07 A3012 RMK A01 T02300066  RH  035%=      5-min Rain = 0
KTAS 262043Z 16013KT 23/07 A3012 RMK A01 T02300067  RH  035%=      5-min Rain = 0
KTAS 262044Z 17011KT 23/07 A3012 RMK A01 T02300071  RH  036%=      5-min Rain = 0
KTAS 262045Z 17011KT 23/07 A3012 RMK A01 T02290066  RH  035%=      5-min Rain = 0
KTAS 262046Z 15011KT 23/07 A3012 RMK A01 T02290069  RH  036%=      5-min Rain = 0
KTAS 262047Z 15014KT 23/07 A3012 RMK A01 T02320070  RH  035%=      5-min Rain = 0
KTAS 262048Z 17013KT 23/07 A3012 RMK A01 T02330069  RH  035%=      5-min Rain = 0
KTAS 262049Z 17011KT 23/07 A3012 RMK A01 T02320069  RH  035%=      5-min Rain = 0
KTAS 262050Z 17011KT 23/07 A3012 RMK A01 T02310068  RH  035%=      5-min Rain = 0
KTAS 262051Z 16017KT 23/07 A3012 RMK A01 T02320068  RH  035%=      5-min Rain = 0
KTAS 262052Z 16014KT 23/07 A3012 RMK A01 T02320065  RH  034%=      5-min Rain = 0
KTAS 262053Z 16013KT 23/07 A3012 RMK A01 T02330070  RH  035%=      5-min Rain = 0
KTAS 262054Z 15009KT 23/06 A3012 RMK A01 T02330063  RH  033%=      5-min Rain = 0
KTAS 262055Z 15011KT 23/07 A3011 RMK A01 T02320065  RH  034%=      5-min Rain = 0
KTAS 262056Z 15010KT 23/07 A3011 RMK A01 T02320066  RH  034%=      5-min Rain = 0
KTAS 262057Z 15014KT 23/07 A3011 RMK A01 T02330066  RH  034%=      5-min Rain = 0
KTAS 262058Z 15012KT 23/06 A3011 RMK A01 T02330060  RH  033%=      5-min Rain = 0
KTAS 262059Z 15015KT 23/06 A3011 RMK A01 T02330064  RH  034%=      5-min Rain = 0
KTAS 262100Z 15014KT 23/06 A3011 RMK A01 T02320063  RH  034%=      5-min Rain = 0
KTAS 262101Z 16016KT 23/06 A3011 RMK A01 T02330063  RH  033%=      5-min Rain = 0
KTAS 262102Z 17015KT 23/06 A3011 RMK A01 T02310061  RH  033%=      5-min Rain = 0
KTAS 262103Z 17016G22KT 23/06 A3011 RMK A01 T02290062  RH  034%=      5-min Rain = 0
KTAS 262104Z 16016KT 23/07 A3011 RMK A01 T02290065  RH  035%=      5-min Rain = 0
KTAS 262105Z 14014KT 23/06 A3011 RMK A01 T02310063  RH  034%=      5-min Rain = 0
KTAS 262106Z 15015KT 23/06 A3011 RMK A01 T02300062  RH  034%=      5-min Rain = 0
KTAS 262107Z 15014KT 23/06 A3011 RMK A01 T02300061  RH  033%=      5-min Rain = 0
KTAS 262108Z 15012KT 23/07 A3011 RMK A01 T02310067  RH  035%=      5-min Rain = 0
KTAS 262109Z 15013G18KT 23/07 A301 RMK A01 T02330067  RH  034%=      5-min Rain = 0
KTAS 262110Z 16014KT 23/06 A301 RMK A01 T02320063  RH  033%=      5-min Rain = 0
KTAS 262111Z 16013KT 23/06 A301 RMK A01 T02310064  RH  034%=      5-min Rain = 0
KTAS 262112Z 17015KT 23/07 A301 RMK A01 T02320071  RH  035%=      5-min Rain = 0
KTAS 262113Z 15015KT 23/07 A301 RMK A01 T02330068  RH  035%=      5-min Rain = 0
KTAS 262114Z 16015KT 24/07 A301 RMK A01 T02350070  RH  035%=      5-min Rain = 0
KTAS 262115Z 16014KT 23/07 A301 RMK A01 T02340070  RH  035%=      5-min Rain = 0
KTAS 262116Z 15015KT 23/07 A301 RMK A01 T02340066  RH  034%=      5-min Rain = 0
KTAS 262117Z 16016KT 23/06 A301 RMK A01 T02330061  RH  033%=      5-min Rain = 0
KTAS 262118Z 17011G16KT 23/07 A301 RMK A01 T02330070  RH  035%=      5-min Rain = 0
KTAS 262119Z 16012KT 24/07 A301 RMK A01 T02350073  RH  035%=      5-min Rain = 0
KTAS 262120Z 17016KT 24/07 A301 RMK A01 T02360069  RH  034%=      5-min Rain = 0
KTAS 262121Z 17016KT 24/07 A301 RMK A01 T02350068  RH  034%=      5-min Rain = 0
KTAS 262122Z 17017G22KT 23/07 A301 RMK A01 T02340066  RH  034%=      5-min Rain = 0
KTAS 262123Z 17014KT 23/07 A3009 RMK A01 T02330067  RH  034%=      5-min Rain = 0
KTAS 262124Z 18011KT 24/08 A3009 RMK A01 T02350075  RH  036%=      5-min Rain = 0
KTAS 262125Z 17013G18KT 24/07 A3009 RMK A01 T02370073  RH  035%=      5-min Rain = 0
KTAS 262126Z 15014KT 24/07 A3009 RMK A01 T02380072  RH  034%=      5-min Rain = 0
KTAS 262127Z 16016KT 24/07 A3009 RMK A01 T02390070  RH  034%=      5-min Rain = 0
KTAS 262128Z 15015KT 24/06 A3009 RMK A01 T02360063  RH  033%=      5-min Rain = 0
KTAS 262129Z 16013KT 23/06 A3009 RMK A01 T02340063  RH  033%=      5-min Rain = 0
KTAS 262130Z 15013G18KT 23/07 A3009 RMK A01 T02330065  RH  034%=      5-min Rain = 0
KTAS 262131Z 18014KT 23/07 A3009 RMK A01 T02330065  RH  034%=      5-min Rain = 0
KTAS 262132Z 18017KT 23/07 A3009 RMK A01 T02330067  RH  034%=      5-min Rain = 0
KTAS 262133Z 16017KT 23/07 A3009 RMK A01 T02340065  RH  034%=      5-min Rain = 0
KTAS 262134Z 16014G20KT 24/07 A3009 RMK A01 T02350068  RH  034%=      5-min Rain = 0
KTAS 262135Z 16014KT 24/07 A3009 RMK A01 T02350066  RH  034%=      5-min Rain = 0
KTAS 262136Z 16019G24KT 24/07 A3009 RMK A01 T02350068  RH  034%=      5-min Rain = 0
KTAS 262137Z 15014G19KT 24/07 A3009 RMK A01 T02350065  RH  033%=      5-min Rain = 0
KTAS 262138Z 16017KT 24/07 A3009 RMK A01 T02360068  RH  034%=      5-min Rain = 0
KTAS 262139Z 16018KT 24/07 A3008 RMK A01 T02360067  RH  034%=      5-min Rain = 0
KTAS 262140Z 17017KT 24/07 A3008 RMK A01 T02350066  RH  034%=      5-min Rain = 0
KTAS 262141Z 16015KT 23/07 A3008 RMK A01 T02340070  RH  035%=      5-min Rain = 0
KTAS 262142Z 17017KT 24/07 A3008 RMK A01 T02350070  RH  034%=      5-min Rain = 0
KTAS 262143Z 16015KT 23/07 A3008 RMK A01 T02340065  RH  034%=      5-min Rain = 0
KTAS 262144Z 16016G21KT 23/07 A3008 RMK A01 T02330067  RH  034%=      5-min Rain = 0
KTAS 262145Z 18017KT 23/07 A3008 RMK A01 T02330069  RH  035%=      5-min Rain = 0
KTAS 262146Z 17017KT 24/07 A3008 RMK A01 T02360071  RH  035%=      5-min Rain = 0
KTAS 262147Z 17017KT 24/07 A3008 RMK A01 T02350069  RH  034%=      5-min Rain = 0
KTAS 262148Z 17016KT 24/07 A3008 RMK A01 T02350072  RH  035%=      5-min Rain = 0
KTAS 262149Z 17017KT 24/07 A3008 RMK A01 T02350069  RH  034%=      5-min Rain = 0
KTAS 262150Z 17017KT 23/07 A3008 RMK A01 T02340067  RH  034%=      5-min Rain = 0
KTAS 262151Z 16017KT 23/07 A3008 RMK A01 T02340070  RH  035%=      5-min Rain = 0
KTAS 262152Z 17017KT 23/07 A3008 RMK A01 T02340068  RH  034%=      5-min Rain = 0
KTAS 262153Z 17014KT 23/07 A3007 RMK A01 T02330068  RH  034%=      5-min Rain = 0
KTAS 262154Z 17018KT 23/07 A3007 RMK A01 T02340071  RH  035%=      5-min Rain = 0
KTAS 262155Z 18016KT 23/07 A3007 RMK A01 T02340069  RH  035%=      5-min Rain = 0
KTAS 262156Z 19017KT 24/07 A3007 RMK A01 T02350071  RH  035%=      5-min Rain = 0
KTAS 262157Z 17017KT 23/07 A3007 RMK A01 T02340068  RH  034%=      5-min Rain = 0
KTAS 262158Z 17015KT 23/07 A3007 RMK A01 T02330068  RH  034%=      5-min Rain = 0
KTAS 262159Z 17014KT 23/07 A3007 RMK A01 T02330070  RH  035%=      5-min Rain = 0
KTAS 262200Z 16014KT 23/07 A3007 RMK A01 T02340071  RH  035%=      5-min Rain = 0
KTAS 262201Z 15015KT 24/07 A3007 RMK A01 T02350069  RH  034%=      5-min Rain = 0
KTAS 262202Z 16016KT 24/07 A3007 RMK A01 T02360072  RH  035%=      5-min Rain = 0
KTAS 262203Z 17015KT 24/07 A3007 RMK A01 T02370073  RH  035%=      5-min Rain = 0
KTAS 262204Z 17013KT 24/08 A3007 RMK A01 T02370078  RH  036%=      5-min Rain = 0
KTAS 262205Z 17014KT 24/08 A3007 RMK A01 T02370076  RH  036%=      5-min Rain = 0
KTAS 262206Z 18018KT 24/08 A3006 RMK A01 T02370076  RH  036%=      5-min Rain = 0
KTAS 262207Z 18016KT 24/08 A3006 RMK A01 T02370075  RH  036%=      5-min Rain = 0
KTAS 262208Z 18018KT 24/07 A3006 RMK A01 T02350071  RH  035%=      5-min Rain = 0
KTAS 262209Z 18012KT 23/07 A3006 RMK A01 T02330071  RH  035%=      5-min Rain = 0
KTAS 262210Z 18013KT 23/08 A3006 RMK A01 T02340078  RH  037%=      5-min Rain = 0
KTAS 262211Z 17019KT 24/07 A3006 RMK A01 T02350074  RH  036%=      5-min Rain = 0
KTAS 262212Z 16015KT 23/07 A3006 RMK A01 T02340074  RH  036%=      5-min Rain = 0
KTAS 262213Z 18015KT 24/08 A3006 RMK A01 T02350076  RH  036%=      5-min Rain = 0
KTAS 262214Z 18015KT 24/08 A3006 RMK A01 T02360080  RH  037%=      5-min Rain = 0
KTAS 262215Z 17016KT 24/08 A3006 RMK A01 T02370079  RH  036%=      5-min Rain = 0
KTAS 262216Z 16016KT 24/08 A3006 RMK A01 T02380078  RH  036%=      5-min Rain = 0
KTAS 262217Z 16016KT 24/07 A3006 RMK A01 T02360072  RH  035%=      5-min Rain = 0
KTAS 262218Z 17017KT 24/08 A3006 RMK A01 T02360076  RH  036%=      5-min Rain = 0
KTAS 262219Z 17017KT 23/07 A3006 RMK A01 T02340074  RH  036%=      5-min Rain = 0
KTAS 262220Z 17018G24KT 24/08 A3006 RMK A01 T02350078  RH  037%=      5-min Rain = 0
KTAS 262221Z 17017KT 23/08 A3006 RMK A01 T02340076  RH  036%=      5-min Rain = 0
KTAS 262222Z 17013KT 23/08 A3006 RMK A01 T02330078  RH  037%=      5-min Rain = 0
KTAS 262223Z 17017KT 24/08 A3006 RMK A01 T02350080  RH  037%=      5-min Rain = 0
KTAS 262224Z 16014KT 24/08 A3005 RMK A01 T02350079  RH  037%=      5-min Rain = 0
KTAS 262225Z 15018KT 24/08 A3005 RMK A01 T02350078  RH  036%=      5-min Rain = 0
KTAS 262226Z 16019KT 24/08 A3005 RMK A01 T02350077  RH  036%=      5-min Rain = 0
KTAS 262227Z 16018KT 24/08 A3005 RMK A01 T02350079  RH  037%=      5-min Rain = 0
KTAS 262228Z 16015KT 24/08 A3005 RMK A01 T02350078  RH  037%=      5-min Rain = 0
KTAS 262229Z 16016KT 24/08 A3005 RMK A01 T02350080  RH  037%=      5-min Rain = 0
KTAS 262230Z 16016KT 24/08 A3005 RMK A01 T02350080  RH  037%=      5-min Rain = 0
KTAS 262231Z 17015G20KT 24/08 A3005 RMK A01 T02360082  RH  037%=      5-min Rain = 0
KTAS 262232Z 17019G24KT 24/09 A3005 RMK A01 T02380085  RH  037%=      5-min Rain = 0
KTAS 262233Z 17017KT 24/08 A3005 RMK A01 T02360080  RH  037%=      5-min Rain = 0
KTAS 262234Z 18016KT 24/08 A3005 RMK A01 T02350080  RH  037%=      5-min Rain = 0
KTAS 262235Z 17014KT 23/08 A3005 RMK A01 T02340082  RH  038%=      5-min Rain = 0
KTAS 262236Z 16014G19KT 24/09 A3005 RMK A01 T02350085  RH  038%=      5-min Rain = 0
KTAS 262237Z 16015KT 24/09 A3005 RMK A01 T02370085  RH  038%=      5-min Rain = 0
KTAS 262238Z 17015KT 24/09 A3005 RMK A01 T02380086  RH  038%=      5-min Rain = 0
KTAS 262239Z 17017KT 24/08 A3005 RMK A01 T02370084  RH  038%=      5-min Rain = 0
KTAS 262240Z 17015KT 24/08 A3004 RMK A01 T02350082  RH  037%=      5-min Rain = 0
KTAS 262241Z 17016G21KT 24/09 A3004 RMK A01 T02350087  RH  039%=      5-min Rain = 0
KTAS 262242Z 16019KT 24/09 A3004 RMK A01 T02370087  RH  038%=      5-min Rain = 0
KTAS 262243Z 17019KT 24/08 A3004 RMK A01 T02370084  RH  038%=      5-min Rain = 0
KTAS 262244Z 18015KT 24/09 A3004 RMK A01 T02350085  RH  038%=      5-min Rain = 0
KTAS 262245Z 17013KT 24/09 A3004 RMK A01 T02350089  RH  039%=      5-min Rain = 0
KTAS 262246Z 18015KT 24/09 A3004 RMK A01 T02370090  RH  039%=      5-min Rain = 0
KTAS 262247Z 16016KT 24/09 A3004 RMK A01 T02370089  RH  039%=      5-min Rain = 0
KTAS 262248Z 16017KT 24/09 A3004 RMK A01 T02370087  RH  038%=      5-min Rain = 0
KTAS 262249Z 16015KT 24/09 A3004 RMK A01 T02370088  RH  039%=      5-min Rain = 0
KTAS 262250Z 17016KT 24/09 A3004 RMK A01 T02380093  RH  040%=      5-min Rain = 0
KTAS 262251Z 17016KT 24/09 A3004 RMK A01 T02380089  RH  039%=      5-min Rain = 0
KTAS 262252Z 18016KT 24/09 A3004 RMK A01 T02370090  RH  039%=      5-min Rain = 0
KTAS 262253Z 17014KT 24/09 A3004 RMK A01 T02380092  RH  039%=      5-min Rain = 0
KTAS 262254Z 17015KT 24/09 A3004 RMK A01 T02390092  RH  039%=      5-min Rain = 0
KTAS 262255Z 17015KT 24/09 A3004 RMK A01 T02380092  RH  039%=      5-min Rain = 0
KTAS 262256Z 18013KT 24/09 A3004 RMK A01 T02380091  RH  039%=      5-min Rain = 0
KTAS 262257Z 17014KT 24/10 A3003 RMK A01 T02390095  RH  040%=      5-min Rain = 0
KTAS 262258Z 17015KT 24/10 A3003 RMK A01 T02400096  RH  040%=      5-min Rain = 0
KTAS 262259Z 16018KT 24/09 A3003 RMK A01 T02390091  RH  039%=      5-min Rain = 0
KTAS 262300Z 17016G21KT 24/09 A3003 RMK A01 T02390090  RH  039%=      5-min Rain = 0
KTAS 262301Z 16016G21KT 24/09 A3003 RMK A01 T02380091  RH  039%=      5-min Rain = 0
KTAS 262302Z 16018KT 24/09 A3003 RMK A01 T02370089  RH  039%=      5-min Rain = 0
KTAS 262303Z 16018KT 24/09 A3003 RMK A01 T02360088  RH  039%=      5-min Rain = 0
KTAS 262304Z 17013KT 24/09 A3003 RMK A01 T02360092  RH  040%=      5-min Rain = 0
KTAS 262305Z 18013KT 24/09 A3003 RMK A01 T02370093  RH  040%=      5-min Rain = 0
KTAS 262306Z 17013G18KT 24/10 A3003 RMK A01 T02380095  RH  040%=      5-min Rain = 0
KTAS 262307Z 17014KT 24/10 A3003 RMK A01 T02380095  RH  040%=      5-min Rain = 0
KTAS 262308Z 17016KT 24/09 A3003 RMK A01 T02370093  RH  040%=      5-min Rain = 0
KTAS 262309Z 17017KT 24/09 A3003 RMK A01 T02370093  RH  040%=      5-min Rain = 0
KTAS 262310Z 16018G23KT 24/09 A3003 RMK A01 T02360091  RH  040%=      5-min Rain = 0
KTAS 262311Z 16015KT 24/09 A3003 RMK A01 T02360091  RH  040%=      5-min Rain = 0
KTAS 262312Z 17019KT 24/09 A3003 RMK A01 T02360091  RH  040%=      5-min Rain = 0
KTAS 262313Z 17017KT 24/09 A3003 RMK A01 T02350091  RH  040%=      5-min Rain = 0
KTAS 262314Z 17017G22KT 24/09 A3002 RMK A01 T02350094  RH  041%=      5-min Rain = 0
KTAS 262315Z 16019KT 24/09 A3002 RMK A01 T02350092  RH  040%=      5-min Rain = 0
KTAS 262316Z 17020KT 24/09 A3002 RMK A01 T02350092  RH  040%=      5-min Rain = 0
KTAS 262317Z 17019KT 23/09 A3002 RMK A01 T02340090  RH  040%=      5-min Rain = 0
KTAS 262318Z 17016G21KT 23/09 A3002 RMK A01 T02340092  RH  041%=      5-min Rain = 0
KTAS 262319Z 17019G24KT 24/09 A3002 RMK A01 T02350092  RH  040%=      5-min Rain = 0
KTAS 262320Z 18017KT 24/09 A3002 RMK A01 T02350093  RH  041%=      5-min Rain = 0
KTAS 262321Z 17018KT 24/09 A3002 RMK A01 T02350093  RH  040%=      5-min Rain = 0
KTAS 262322Z 17017KT 24/09 A3002 RMK A01 T02350092  RH  040%=      5-min Rain = 0
KTAS 262323Z 17016KT 24/09 A3002 RMK A01 T02350094  RH  041%=      5-min Rain = 0
KTAS 262324Z 19018G23KT 24/10 A3002 RMK A01 T02360096  RH  041%=      5-min Rain = 0
KTAS 262325Z 19016G22KT 24/09 A3002 RMK A01 T02360093  RH  040%=      5-min Rain = 0
KTAS 262326Z 18017G23KT 24/09 A3002 RMK A01 T02360094  RH  041%=      5-min Rain = 0
KTAS 262327Z 18017KT 24/09 A3002 RMK A01 T02350090  RH  040%=      5-min Rain = 0
KTAS 262328Z 18017KT 23/09 A3002 RMK A01 T02340093  RH  041%=      5-min Rain = 0
KTAS 262329Z 18018KT 23/09 A3002 RMK A01 T02340093  RH  041%=      5-min Rain = 0
KTAS 262330Z 17016KT 23/10 A3002 RMK A01 T02340095  RH  041%=      5-min Rain = 0
KTAS 262331Z 17018KT 24/10 A3002 RMK A01 T02350097  RH  041%=      5-min Rain = 0
KTAS 262332Z 18018KT 24/10 A3002 RMK A01 T02350095  RH  041%=      5-min Rain = 0
KTAS 262333Z 17018KT 24/09 A3002 RMK A01 T02350094  RH  041%=      5-min Rain = 0
KTAS 262334Z 18016KT 23/09 A3002 RMK A01 T02340093  RH  040%=      5-min Rain = 0
KTAS 262335Z 18017KT 24/09 A3002 RMK A01 T02350094  RH  041%=      5-min Rain = 0
KTAS 262336Z 18018KT 23/09 A3002 RMK A01 T02340092  RH  040%=      5-min Rain = 0
KTAS 262337Z 19016KT 23/09 A3002 RMK A01 T02330091  RH  040%=      5-min Rain = 0
KTAS 262338Z 17015KT 23/09 A3002 RMK A01 T02330094  RH  041%=      5-min Rain = 0
KTAS 262339Z 17015KT 23/10 A3002 RMK A01 T02340096  RH  042%=      5-min Rain = 0
KTAS 262340Z 16018KT 23/10 A3002 RMK A01 T02340095  RH  041%=      5-min Rain = 0
KTAS 262341Z 17018KT 23/09 A3002 RMK A01 T02320093  RH  041%=      5-min Rain = 0
KTAS 262342Z 16015KT 23/10 A3002 RMK A01 T02320095  RH  042%=      5-min Rain = 0
KTAS 262343Z 17018G23KT 23/10 A3002 RMK A01 T02320095  RH  042%=      5-min Rain = 0
KTAS 262344Z 17019KT 23/10 A3002 RMK A01 T02320095  RH  042%=      5-min Rain = 0
KTAS 262345Z 18017KT 23/10 A3002 RMK A01 T02310095  RH  042%=      5-min Rain = 0
KTAS 262346Z 18017KT 23/10 A3002 RMK A01 T02310095  RH  042%=      5-min Rain = 0
KTAS 262347Z 17018KT 23/10 A3002 RMK A01 T02310095  RH  042%=      5-min Rain = 0
KTAS 262348Z 17016KT 23/10 A3002 RMK A01 T02310095  RH  042%=      5-min Rain = 0
KTAS 262349Z 17016KT 23/10 A3002 RMK A01 T02300096  RH  042%=      5-min Rain = 0
KTAS 262350Z 18015G20KT 23/10 A3002 RMK A01 T02310097  RH  043%=      5-min Rain = 0
KTAS 262351Z 18017KT 23/10 A3002 RMK A01 T02310095  RH  042%=      5-min Rain = 0
KTAS 262352Z 18018KT 23/09 A3001 RMK A01 T02300094  RH  042%=      5-min Rain = 0
KTAS 262353Z 17017KT 23/10 A3001 RMK A01 T02290095  RH  043%=      5-min Rain = 0
KTAS 262354Z 17018KT 23/09 A3001 RMK A01 T02290094  RH  042%=      5-min Rain = 0
KTAS 262355Z 17013KT 23/10 A3001 RMK A01 T02280096  RH  043%=      5-min Rain = 0
KTAS 262356Z 18017KT 23/10 A3001 RMK A01 T02290099  RH  044%=      5-min Rain = 0
KTAS 262357Z 18016KT 23/10 A3001 RMK A01 T02280095  RH  043%=      5-min Rain = 0
KTAS 262358Z 17014KT 23/10 A3001 RMK A01 T02280098  RH  043%=      5-min Rain = 0
KTAS 262359Z 18016G22KT 23/10 A3001 RMK A01 T02290099  RH  044%=      5-min Rain = 0
KTAS 270000Z 17018KT 23/10 A3001 RMK A01 T02290097  RH  043%=      5-min Rain = 0
KTAS 270001Z 16019KT 23/10 A3001 RMK A01 T02280096  RH  043%=      5-min Rain = 0
KTAS 270002Z 16014G19KT 23/10 A3001 RMK A01 T02280096  RH  043%=      5-min Rain = 0
KTAS 270003Z 16017KT 23/10 A3001 RMK A01 T02280096  RH  043%=      5-min Rain = 0
KTAS 270004Z 16017KT 23/10 A3001 RMK A01 T02280095  RH  043%=      5-min Rain = 0
KTAS 270005Z 17019KT 23/09 A3001 RMK A01 T02280094  RH  043%=      5-min Rain = 0
KTAS 270006Z 17019KT 23/09 A3001 RMK A01 T02270094  RH  043%=      5-min Rain = 0
KTAS 270007Z 16017KT 23/10 A30 RMK A01 T02270095  RH  043%=      5-min Rain = 0
KTAS 270008Z 16016KT 23/10 A30 RMK A01 T02270095  RH  043%=      5-min Rain = 0
KTAS 270009Z 17018KT 23/10 A30 RMK A01 T02270096  RH  043%=      5-min Rain = 0
KTAS 270010Z 17017KT 23/10 A30 RMK A01 T02270097  RH  044%=      5-min Rain = 0
KTAS 270011Z 17015KT 23/10 A30 RMK A01 T02270100  RH  045%=      5-min Rain = 0
KTAS 270012Z 17017KT 23/10 A30 RMK A01 T02270099  RH  044%=      5-min Rain = 0
KTAS 270013Z 17019G24KT 23/10 A30 RMK A01 T02260098  RH  044%=      5-min Rain = 0
KTAS 270014Z 17019G24KT 23/10 A30 RMK A01 T02260097  RH  044%=      5-min Rain = 0
KTAS 270015Z 17017KT 23/10 A30 RMK A01 T02260097  RH  044%=      5-min Rain = 0
KTAS 270016Z 17017KT 23/10 A30 RMK A01 T02250099  RH  045%=      5-min Rain = 0
KTAS 270017Z 16018KT 23/10 A30 RMK A01 T02260098  RH  044%=      5-min Rain = 0
KTAS 270018Z 17020KT 23/10 A30 RMK A01 T02250098  RH  044%=      5-min Rain = 0
KTAS 270019Z 16019KT 23/10 A30 RMK A01 T02250096  RH  044%=      5-min Rain = 0
KTAS 270020Z 17019KT 23/10 A30 RMK A01 T02250097  RH  044%=      5-min Rain = 0
KTAS 270021Z 17021KT 23/10 A30 RMK A01 T02250098  RH  045%=      5-min Rain = 0
KTAS 270022Z 17018KT 22/10 A30 RMK A01 T02240098  RH  045%=      5-min Rain = 0
KTAS 270023Z 17019KT 22/10 A30 RMK A01 T02240099  RH  045%=      5-min Rain = 0
KTAS 270024Z 17017KT 22/10 A2999 RMK A01 T02240099  RH  045%=      5-min Rain = 0
KTAS 270025Z 17016G21KT 22/10 A2999 RMK A01 T02230100  RH  046%=      5-min Rain = 0
KTAS 270026Z 17016KT 22/10 A2999 RMK A01 T02230101  RH  046%=      5-min Rain = 0
KTAS 270027Z 17015KT 22/10 A2999 RMK A01 T02220101  RH  046%=      5-min Rain = 0
KTAS 270028Z 17018G24KT 22/10 A2999 RMK A01 T02220101  RH  046%=      5-min Rain = 0
KTAS 270029Z 17021KT 22/10 A2999 RMK A01 T02220100  RH  046%=      5-min Rain = 0
KTAS 270030Z 17020KT 22/10 A2999 RMK A01 T02220100  RH  046%=      5-min Rain = 0
KTAS 270031Z 17017KT 22/10 A2999 RMK A01 T02220099  RH  046%=      5-min Rain = 0
KTAS 270032Z 17017KT 22/10 A2999 RMK A01 T02210101  RH  046%=      5-min Rain = 0
KTAS 270033Z 16019KT 22/10 A2999 RMK A01 T02210099  RH  046%=      5-min Rain = 0
KTAS 270034Z 17017KT 22/10 A2999 RMK A01 T02210099  RH  046%=      5-min Rain = 0
KTAS 270035Z 17015KT 22/10 A2999 RMK A01 T02210100  RH  046%=      5-min Rain = 0
KTAS 270036Z 17017KT 22/10 A2998 RMK A01 T02200100  RH  046%=      5-min Rain = 0
KTAS 270037Z 16016KT 22/10 A2998 RMK A01 T02200101  RH  047%=      5-min Rain = 0
KTAS 270038Z 16017KT 22/10 A2998 RMK A01 T02200101  RH  047%=      5-min Rain = 0
KTAS 270039Z 16018KT 22/10 A2998 RMK A01 T02200100  RH  046%=      5-min Rain = 0
KTAS 270040Z 17018KT 22/10 A2998 RMK A01 T02190100  RH  047%=      5-min Rain = 0
KTAS 270041Z 17016KT 22/10 A2998 RMK A01 T02180100  RH  047%=      5-min Rain = 0
KTAS 270042Z 17017KT 22/10 A2998 RMK A01 T02160100  RH  048%=      5-min Rain = 0
KTAS 270043Z 17017KT 22/10 A2998 RMK A01 T02160100  RH  048%=      5-min Rain = 0
KTAS 270044Z 17013KT 22/10 A2998 RMK A01 T02150101  RH  048%=      5-min Rain = 0
KTAS 270045Z 17017KT 21/10 A2998 RMK A01 T02140101  RH  048%=      5-min Rain = 0
KTAS 270046Z 17017KT 21/10 A2998 RMK A01 T02140101  RH  048%=      5-min Rain = 0
KTAS 270047Z 17015KT 21/10 A2998 RMK A01 T02140101  RH  049%=      5-min Rain = 0
KTAS 270048Z 17016KT 21/10 A2998 RMK A01 T02130101  RH  049%=      5-min Rain = 0
KTAS 270049Z 17016KT 21/10 A2998 RMK A01 T02130101  RH  049%=      5-min Rain = 0
KTAS 270050Z 17016KT 21/10 A2998 RMK A01 T02130102  RH  049%=      5-min Rain = 0
KTAS 270051Z 17017KT 21/10 A2998 RMK A01 T02120100  RH  049%=      5-min Rain = 0
KTAS 270052Z 17015KT 21/10 A2999 RMK A01 T02120100  RH  049%=      5-min Rain = 0
KTAS 270053Z 17017KT 21/10 A2999 RMK A01 T02120100  RH  049%=      5-min Rain = 0
KTAS 270054Z 16015KT 21/10 A2999 RMK A01 T02120100  RH  049%=      5-min Rain = 0
KTAS 270055Z 17017KT 21/10 A2999 RMK A01 T02110100  RH  049%=      5-min Rain = 0
KTAS 270056Z 16014KT 21/10 A2999 RMK A01 T02110100  RH  049%=      5-min Rain = 0
KTAS 270057Z 16014KT 21/10 A2999 RMK A01 T02100100  RH  049%=      5-min Rain = 0
KTAS 270058Z 16017KT 21/10 A2999 RMK A01 T02090100  RH  050%=      5-min Rain = 0
KTAS 270059Z 17017KT 21/10 A2999 RMK A01 T02090100  RH  050%=      5-min Rain = 0
KTAS 270100Z 17018KT 21/10 A2999 RMK A01 T02100100  RH  049%=      5-min Rain = 0
KTAS 270101Z 17017KT 21/10 A2999 RMK A01 T02100101  RH  050%=      5-min Rain = 0
KTAS 270102Z 16014KT 21/10 A2999 RMK A01 T02100101  RH  050%=      5-min Rain = 0
KTAS 270103Z 17013KT 21/10 A2999 RMK A01 T02090101  RH  050%=      5-min Rain = 0
KTAS 270104Z 16014KT 21/10 A2999 RMK A01 T02080102  RH  050%=      5-min Rain = 0
KTAS 270105Z 17015KT 21/10 A2999 RMK A01 T02080102  RH  050%=      5-min Rain = 0
KTAS 270106Z 16014KT 21/10 A2999 RMK A01 T02080102  RH  051%=      5-min Rain = 0
KTAS 270107Z 17013KT 21/10 A2999 RMK A01 T02070102  RH  051%=      5-min Rain = 0
KTAS 270108Z 17014KT 21/10 A2999 RMK A01 T02070102  RH  051%=      5-min Rain = 0
KTAS 270109Z 17013KT 21/10 A2999 RMK A01 T02060102  RH  051%=      5-min Rain = 0
KTAS 270110Z 17012KT 21/10 A2999 RMK A01 T02060103  RH  051%=      5-min Rain = 0
KTAS 270111Z 17012KT 21/10 A2999 RMK A01 T02060103  RH  052%=      5-min Rain = 0
KTAS 270112Z 17012KT 21/10 A30 RMK A01 T02050103  RH  052%=      5-min Rain = 0
KTAS 270113Z 17014KT 21/10 A30 RMK A01 T02050103  RH  052%=      5-min Rain = 0
KTAS 270114Z 17012KT 20/10 A30 RMK A01 T02040103  RH  052%=      5-min Rain = 0
KTAS 270115Z 17013KT 20/10 A30 RMK A01 T02040103  RH  052%=      5-min Rain = 0
KTAS 270116Z 17012KT 20/10 A30 RMK A01 T02040102  RH  052%=      5-min Rain = 0
KTAS 270117Z 17011G16KT 20/10 A30 RMK A01 T02040103  RH  052%=      5-min Rain = 0
KTAS 270118Z 17012KT 20/10 A30 RMK A01 T02040103  RH  052%=      5-min Rain = 0
KTAS 270119Z 17011KT 20/10 A30 RMK A01 T02040103  RH  052%=      5-min Rain = 0
KTAS 270120Z 17012KT 20/10 A30 RMK A01 T02030103  RH  052%=      5-min Rain = 0
KTAS 270121Z 16011KT 20/10 A30 RMK A01 T02040103  RH  052%=      5-min Rain = 0
KTAS 270122Z 17010KT 20/10 A30 RMK A01 T02030103  RH  053%=      5-min Rain = 0
KTAS 270123Z 17010KT 20/10 A30 RMK A01 T02020103  RH  053%=      5-min Rain = 0
KTAS 270124Z 17010KT 20/10 A30 RMK A01 T02020103  RH  053%=      5-min Rain = 0
KTAS 270125Z 17011KT 20/10 A30 RMK A01 T02010103  RH  053%=      5-min Rain = 0
KTAS 270126Z 17010KT 20/10 A30 RMK A01 T02000104  RH  054%=      5-min Rain = 0
KTAS 270127Z 17010KT 20/10 A30 RMK A01 T01990103  RH  054%=      5-min Rain = 0
KTAS 270128Z 18011KT 20/10 A30 RMK A01 T01990103  RH  054%=      5-min Rain = 0
KTAS 270129Z 17010KT 20/10 A30 RMK A01 T01980102  RH  054%=      5-min Rain = 0
KTAS 270130Z 17009KT 20/10 A30 RMK A01 T01980103  RH  054%=      5-min Rain = 0
KTAS 270131Z 17009KT 20/10 A30 RMK A01 T01970102  RH  054%=      5-min Rain = 0
KTAS 270132Z 18010KT 20/10 A30 RMK A01 T01970102  RH  054%=      5-min Rain = 0
KTAS 270133Z 17009KT 20/10 A30 RMK A01 T01960102  RH  054%=      5-min Rain = 0
KTAS 270134Z 17009KT 20/10 A30 RMK A01 T01950102  RH  055%=      5-min Rain = 0
KTAS 270135Z 17010KT 20/10 A30 RMK A01 T01950102  RH  055%=      5-min Rain = 0
KTAS 270136Z 17010KT 20/10 A30 RMK A01 T01950102  RH  055%=      5-min Rain = 0
KTAS 270137Z 17008KT 20/10 A30 RMK A01 T01950102  RH  055%=      5-min Rain = 0
KTAS 270138Z 17008KT 19/10 A3001 RMK A01 T01940102  RH  055%=      5-min Rain = 0
KTAS 270139Z 17008KT 19/10 A3001 RMK A01 T01930102  RH  056%=      5-min Rain = 0
KTAS 270140Z 17009KT 19/10 A3001 RMK A01 T01930102  RH  056%=      5-min Rain = 0
KTAS 270141Z 17009KT 19/10 A3001 RMK A01 T01930102  RH  056%=      5-min Rain = 0
KTAS 270142Z 17008KT 19/10 A3001 RMK A01 T01940102  RH  056%=      5-min Rain = 0
KTAS 270143Z 17009KT 19/10 A3001 RMK A01 T01930102  RH  056%=      5-min Rain = 0
KTAS 270144Z 17009KT 19/10 A3001 RMK A01 T01930103  RH  056%=      5-min Rain = 0
KTAS 270145Z 17008KT 19/10 A3001 RMK A01 T01940103  RH  056%=      5-min Rain = 0
KTAS 270146Z 17007KT 19/10 A3001 RMK A01 T01930103  RH  056%=      5-min Rain = 0
KTAS 270147Z 17008KT 19/10 A3001 RMK A01 T01920104  RH  056%=      5-min Rain = 0
KTAS 270148Z 17007KT 19/10 A3001 RMK A01 T01920104  RH  057%=      5-min Rain = 0
KTAS 270149Z 17008KT 19/10 A3001 RMK A01 T01920104  RH  057%=      5-min Rain = 0
KTAS 270150Z 17007KT 19/10 A3001 RMK A01 T01910104  RH  057%=      5-min Rain = 0
KTAS 270151Z 17007KT 19/10 A3001 RMK A01 T01910104  RH  057%=      5-min Rain = 0
KTAS 270152Z 17007KT 19/10 A3001 RMK A01 T01900104  RH  057%=      5-min Rain = 0
KTAS 270153Z 17007KT 19/10 A3001 RMK A01 T01900104  RH  058%=      5-min Rain = 0
KTAS 270154Z 17007KT 19/10 A3001 RMK A01 T01890104  RH  058%=      5-min Rain = 0
KTAS 270155Z 16007KT 19/11 A3001 RMK A01 T01890105  RH  058%=      5-min Rain = 0
KTAS 270156Z 17009KT 19/10 A3001 RMK A01 T01890104  RH  058%=      5-min Rain = 0
KTAS 270157Z 16008KT 19/10 A3001 RMK A01 T01900104  RH  057%=      5-min Rain = 0
KTAS 270158Z 16008KT 19/11 A3001 RMK A01 T01900105  RH  058%=      5-min Rain = 0
KTAS 270159Z 16010KT 19/10 A3001 RMK A01 T01890104  RH  058%=      5-min Rain = 0
KTAS 270200Z 16008KT 19/10 A3001 RMK A01 T01900104  RH  057%=      5-min Rain = 0
KTAS 270201Z 17009KT 19/10 A3001 RMK A01 T01900104  RH  057%=      5-min Rain = 0
KTAS 270202Z 17008KT 19/10 A3001 RMK A01 T01890104  RH  057%=      5-min Rain = 0
KTAS 270203Z 16008KT 19/11 A3001 RMK A01 T01890105  RH  058%=      5-min Rain = 0
KTAS 270204Z 16009KT 19/10 A30 RMK A01 T01870104  RH  058%=      5-min Rain = 0
KTAS 270205Z 16009KT 19/10 A30 RMK A01 T01880104  RH  058%=      5-min Rain = 0
KTAS 270206Z 16010KT 19/10 A30 RMK A01 T01880104  RH  058%=      5-min Rain = 0
KTAS 270207Z 16010KT 19/10 A30 RMK A01 T01890103  RH  058%=      5-min Rain = 0
KTAS 270208Z 16010KT 19/10 A30 RMK A01 T01900104  RH  057%=      5-min Rain = 0
KTAS 270209Z 16010KT 19/10 A30 RMK A01 T01900104  RH  057%=      5-min Rain = 0
KTAS 270210Z 16009KT 19/10 A30 RMK A01 T01890104  RH  057%=      5-min Rain = 0
KTAS 270211Z 16009KT 19/10 A30 RMK A01 T01880104  RH  058%=      5-min Rain = 0
KTAS 270212Z 16010KT 19/10 A30 RMK A01 T01870104  RH  058%=      5-min Rain = 0
KTAS 270213Z 16010KT 19/10 A30 RMK A01 T01870104  RH  058%=      5-min Rain = 0
KTAS 270214Z 16011KT 19/10 A2999 RMK A01 T01870104  RH  058%=      5-min Rain = 0
KTAS 270215Z 16009KT 19/10 A2999 RMK A01 T01870104  RH  058%=      5-min Rain = 0
KTAS 270216Z 16011KT 19/10 A2999 RMK A01 T01870104  RH  058%=      5-min Rain = 0
KTAS 270217Z 16010KT 19/10 A2999 RMK A01 T01870104  RH  058%=      5-min Rain = 0
KTAS 270218Z 16011KT 19/10 A2999 RMK A01 T01870104  RH  059%=      5-min Rain = 0
KTAS 270219Z 16011KT 19/10 A2999 RMK A01 T01870104  RH  058%=      5-min Rain = 0
KTAS 270220Z 16011KT 19/10 A2999 RMK A01 T01870104  RH  058%=      5-min Rain = 0
KTAS 270221Z 16012KT 19/10 A2999 RMK A01 T01870104  RH  058%=      5-min Rain = 0
KTAS 270222Z 16012KT 19/10 A2999 RMK A01 T01870104  RH  058%=      5-min Rain = 0
KTAS 270223Z 16010KT 19/10 A2999 RMK A01 T01870104  RH  058%=      5-min Rain = 0
KTAS 270224Z 16011KT 19/10 A2999 RMK A01 T01870104  RH  058%=      5-min Rain = 0
KTAS 270225Z 16012KT 19/10 A2999 RMK A01 T01870104  RH  058%=      5-min Rain = 0
KTAS 270226Z 16013KT 19/10 A2999 RMK A01 T01880104  RH  058%=      5-min Rain = 0
KTAS 270227Z 16011KT 19/10 A2999 RMK A01 T01880104  RH  058%=      5-min Rain = 0
KTAS 270228Z 16012KT 19/10 A2999 RMK A01 T01870104  RH  058%=      5-min Rain = 0
KTAS 270229Z 16011KT 19/10 A2999 RMK A01 T01860104  RH  059%=      5-min Rain = 0
KTAS 270230Z 16011KT 19/10 A2999 RMK A01 T01860103  RH  059%=      5-min Rain = 0
KTAS 270231Z 16012KT 19/10 A2999 RMK A01 T01860103  RH  059%=      5-min Rain = 0
KTAS 270232Z 16010KT 19/10 A2999 RMK A01 T01860104  RH  059%=      5-min Rain = 0
KTAS 270233Z 16011KT 19/10 A2999 RMK A01 T01850104  RH  059%=      5-min Rain = 0
KTAS 270234Z 16010KT 19/10 A2999 RMK A01 T01850104  RH  059%=      5-min Rain = 0
KTAS 270235Z 16010KT 19/10 A2999 RMK A01 T01850104  RH  059%=      5-min Rain = 0
KTAS 270236Z 16011KT 19/10 A2999 RMK A01 T01850103  RH  059%=      5-min Rain = 0
KTAS 270237Z 16010KT 19/10 A2999 RMK A01 T01850103  RH  059%=      5-min Rain = 0
KTAS 270238Z 16011KT 19/10 A2999 RMK A01 T01850104  RH  059%=      5-min Rain = 0
KTAS 270239Z 16010KT 19/10 A30 RMK A01 T01850104  RH  059%=      5-min Rain = 0
KTAS 270240Z 16011KT 18/10 A30 RMK A01 T01840104  RH  060%=      5-min Rain = 0
KTAS 270241Z 16009KT 18/10 A30 RMK A01 T01840104  RH  060%=      5-min Rain = 0
KTAS 270242Z 16012KT 19/10 A30 RMK A01 T01850104  RH  059%=      5-min Rain = 0
KTAS 270243Z 16012KT 19/10 A30 RMK A01 T01850104  RH  059%=      5-min Rain = 0
KTAS 270244Z 16011KT 19/10 A30 RMK A01 T01860104  RH  059%=      5-min Rain = 0
KTAS 270245Z 16011KT 19/10 A30 RMK A01 T01860104  RH  059%=      5-min Rain = 0
KTAS 270246Z 17012KT 19/10 A30 RMK A01 T01860104  RH  059%=      5-min Rain = 0
KTAS 270247Z 17010KT 19/10 A30 RMK A01 T01860104  RH  059%=      5-min Rain = 0
KTAS 270248Z 16011KT 19/10 A30 RMK A01 T01860104  RH  059%=      5-min Rain = 0
KTAS 270249Z 16012KT 19/10 A30 RMK A01 T01860104  RH  059%=      5-min Rain = 0
KTAS 270250Z 16011KT 19/10 A30 RMK A01 T01870104  RH  058%=      5-min Rain = 0
KTAS 270251Z 17013KT 19/10 A30 RMK A01 T01870104  RH  058%=      5-min Rain = 0
KTAS 270252Z 17012KT 19/10 A30 RMK A01 T01870104  RH  058%=      5-min Rain = 0
KTAS 270253Z 16010KT 19/10 A30 RMK A01 T01860104  RH  059%=      5-min Rain = 0
KTAS 270254Z 17011KT 19/11 A30 RMK A01 T01850105  RH  060%=      5-min Rain = 0
KTAS 270255Z 17010KT 18/11 A30 RMK A01 T01840105  RH  060%=      5-min Rain = 0
KTAS 270256Z 17012KT 18/11 A30 RMK A01 T01830105  RH  061%=      5-min Rain = 0
KTAS 270257Z 17011KT 18/11 A30 RMK A01 T01830105  RH  060%=      5-min Rain = 0
KTAS 270258Z 16011KT 18/11 A30 RMK A01 T01820105  RH  061%=      5-min Rain = 0
KTAS 270259Z 17011KT 18/11 A30 RMK A01 T01820105  RH  061%=      5-min Rain = 0
KTAS 270300Z 17012KT 18/11 A30 RMK A01 T01820105  RH  061%=      5-min Rain = 0
KTAS 270301Z 17012KT 18/11 A30 RMK A01 T01820105  RH  061%=      5-min Rain = 0
KTAS 270302Z 17011KT 18/11 A30 RMK A01 T01810105  RH  061%=      5-min Rain = 0
KTAS 270303Z 17010KT 18/11 A30 RMK A01 T01810106  RH  061%=      5-min Rain = 0
KTAS 270304Z 17010KT 18/11 A30 RMK A01 T01810106  RH  061%=      5-min Rain = 0
KTAS 270305Z 17010KT 18/11 A3001 RMK A01 T01810106  RH  061%=      5-min Rain = 0
KTAS 270306Z 17011KT 18/11 A3001 RMK A01 T01800106  RH  062%=      5-min Rain = 0
KTAS 270307Z 17010KT 18/11 A3001 RMK A01 T01800106  RH  062%=      5-min Rain = 0
KTAS 270308Z 17010KT 18/11 A3001 RMK A01 T01790106  RH  062%=      5-min Rain = 0
KTAS 270309Z 17010KT 18/11 A3001 RMK A01 T01780106  RH  063%=      5-min Rain = 0
KTAS 270310Z 17011KT 18/11 A3001 RMK A01 T01790106  RH  062%=      5-min Rain = 0
KTAS 270311Z 17010KT 18/11 A3001 RMK A01 T01790106  RH  062%=      5-min Rain = 0
KTAS 270312Z 16010KT 18/11 A3001 RMK A01 T01790106  RH  062%=      5-min Rain = 0
KTAS 270313Z 17009KT 18/11 A3001 RMK A01 T01790105  RH  062%=      5-min Rain = 0
KTAS 270314Z 17010KT 18/11 A3001 RMK A01 T01790106  RH  062%=      5-min Rain = 0
KTAS 270315Z 17011KT 18/11 A3001 RMK A01 T01790106  RH  062%=      5-min Rain = 0
KTAS 270316Z 17009KT 18/11 A3001 RMK A01 T01790106  RH  062%=      5-min Rain = 0
KTAS 270317Z 17011KT 18/11 A3001 RMK A01 T01790106  RH  062%=      5-min Rain = 0
KTAS 270318Z 16010KT 18/11 A3001 RMK A01 T01790106  RH  062%=      5-min Rain = 0
KTAS 270319Z 16010KT 18/11 A3001 RMK A01 T01780106  RH  062%=      5-min Rain = 0
KTAS 270320Z 17010KT 18/11 A3001 RMK A01 T01800105  RH  062%=      5-min Rain = 0
KTAS 270321Z 17009KT 18/11 A3001 RMK A01 T01800106  RH  062%=      5-min Rain = 0
KTAS 270322Z 17010KT 18/11 A3001 RMK A01 T01790106  RH  062%=      5-min Rain = 0
KTAS 270323Z 17008KT 18/11 A3001 RMK A01 T01780106  RH  063%=      5-min Rain = 0
KTAS 270324Z 16009KT 18/11 A3001 RMK A01 T01770106  RH  063%=      5-min Rain = 0
KTAS 270325Z 16009KT 18/11 A3001 RMK A01 T01770105  RH  063%=      5-min Rain = 0
KTAS 270326Z 17010KT 18/11 A3001 RMK A01 T01770106  RH  063%=      5-min Rain = 0
KTAS 270327Z 16009KT 18/11 A3001 RMK A01 T01760105  RH  063%=      5-min Rain = 0
KTAS 270328Z 17009KT 18/11 A3001 RMK A01 T01760105  RH  063%=      5-min Rain = 0
KTAS 270329Z 16009KT 18/11 A3001 RMK A01 T01760105  RH  063%=      5-min Rain = 0
KTAS 270330Z 16008KT 18/11 A3001 RMK A01 T01760105  RH  063%=      5-min Rain = 0
KTAS 270331Z 16009KT 18/11 A3001 RMK A01 T01760105  RH  063%=      5-min Rain = 0
KTAS 270332Z 16008KT 18/11 A3001 RMK A01 T01760105  RH  063%=      5-min Rain = 0
KTAS 270333Z 16009KT 18/11 A3001 RMK A01 T01760105  RH  063%=      5-min Rain = 0
KTAS 270334Z 16008KT 18/11 A3001 RMK A01 T01750105  RH  063%=      5-min Rain = 0
KTAS 270335Z 16008KT 18/11 A3001 RMK A01 T01750105  RH  064%=      5-min Rain = 0
KTAS 270336Z 16008KT 17/11 A3001 RMK A01 T01740105  RH  064%=      5-min Rain = 0
KTAS 270337Z 16009KT 17/11 A3001 RMK A01 T01730105  RH  064%=      5-min Rain = 0
KTAS 270338Z 16009KT 17/11 A3001 RMK A01 T01730105  RH  064%=      5-min Rain = 0
KTAS 270339Z 16009KT 17/11 A3001 RMK A01 T01730105  RH  064%=      5-min Rain = 0
KTAS 270340Z 16010KT 17/11 A3001 RMK A01 T01740105  RH  064%=      5-min Rain = 0
KTAS 270341Z 16010KT 18/10 A3001 RMK A01 T01750104  RH  063%=      5-min Rain = 0
KTAS 270342Z 16010KT 18/10 A3001 RMK A01 T01750104  RH  063%=      5-min Rain = 0
KTAS 270343Z 16011KT 18/10 A3001 RMK A01 T01760104  RH  063%=      5-min Rain = 0
KTAS 270344Z 16010KT 18/10 A3001 RMK A01 T01760104  RH  063%=      5-min Rain = 0
KTAS 270345Z 16009KT 18/11 A3001 RMK A01 T01760105  RH  063%=      5-min Rain = 0
KTAS 270346Z 16009KT 18/11 A3001 RMK A01 T01760105  RH  063%=      5-min Rain = 0
KTAS 270347Z 15010KT 18/11 A3001 RMK A01 T01750105  RH  063%=      5-min Rain = 0
KTAS 270348Z 15009KT 18/11 A3001 RMK A01 T01750105  RH  063%=      5-min Rain = 0
KTAS 270349Z 16009KT 18/11 A3001 RMK A01 T01750105  RH  063%=      5-min Rain = 0
KTAS 270350Z 16009KT 18/11 A3001 RMK A01 T01750105  RH  063%=      5-min Rain = 0
KTAS 270351Z 15009KT 18/11 A3001 RMK A01 T01750105  RH  063%=      5-min Rain = 0
KTAS 270352Z 16009KT 18/10 A3001 RMK A01 T01760104  RH  063%=      5-min Rain = 0
KTAS 270353Z 16008KT 18/10 A3001 RMK A01 T01770104  RH  062%=      5-min Rain = 0
KTAS 270354Z 15009KT 18/10 A3001 RMK A01 T01760104  RH  063%=      5-min Rain = 0
KTAS 270355Z 15007KT 18/10 A3001 RMK A01 T01760104  RH  063%=      5-min Rain = 0
KTAS 270356Z 15006KT 18/11 A3001 RMK A01 T01750105  RH  063%=      5-min Rain = 0
KTAS 270357Z 15005KT 18/11 A3001 RMK A01 T01750105  RH  063%=      5-min Rain = 0
KTAS 270358Z 15004KT 17/11 A3001 RMK A01 T01740105  RH  064%=      5-min Rain = 0
KTAS 270359Z 16004KT 17/11 A3002 RMK A01 T01740105  RH  064%=      5-min Rain = 0
KTAS 270400Z 17003KT 17/11 A3003 RMK A01 T01740105  RH  064%=      5-min Rain = 0
KTAS 270401Z 26002G7KT 17/11 A3004 RMK A01 T01740105  RH  064%=      5-min Rain = 0
KTAS 270402Z 30012G19KT 17/11 A3006 RMK A01 T01740106  RH  064%=      5-min Rain = 0
KTAS 270403Z 31018KT 17/11 A3008 RMK A01 T01700106  RH  066%=      5-min Rain = 0
KTAS 270404Z 31021G26KT 17/11 A3008 RMK A01 T01690108  RH  067%=      5-min Rain = 0
KTAS 270405Z 32023G29KT 17/11 A3008 RMK A01 T01730109  RH  066%=      5-min Rain = 0
KTAS 270406Z 32021G27KT 18/11 A3008 RMK A01 T01760110  RH  065%=      5-min Rain = 0
KTAS 270407Z 32018G26KT 18/11 A3008 RMK A01 T01780110  RH  064%=      5-min Rain = 0
KTAS 270408Z 00015G25KT 18/11 A3008 RMK A01 T01820108  RH  062%=      5-min Rain = 0
KTAS 270409Z 23008G14KT 19/11 A3008 RMK A01 T01870106  RH  059%=      5-min Rain = 0
KTAS 270410Z 17007KT 19/11 A3006 RMK A01 T01890105  RH  058%=      5-min Rain = 0
KTAS 270411Z 16007KT 19/10 A3005 RMK A01 T01930104  RH  056%=      5-min Rain = 0
KTAS 270412Z 17008KT 19/11 A3005 RMK A01 T01940106  RH  056%=      5-min Rain = 0
KTAS 270413Z 19007KT 20/11 A3005 RMK A01 T01950105  RH  056%=      5-min Rain = 0
KTAS 270414Z 21006KT 20/11 A3006 RMK A01 T01960105  RH  056%=      5-min Rain = 0
KTAS 270415Z 26011KT 20/11 A3007 RMK A01 T01960105  RH  056%=      5-min Rain = 0
KTAS 270416Z 29014KT 19/11 A3008 RMK A01 T01940106  RH  057%=      5-min Rain = 0
KTAS 270417Z 30016KT 19/11 A3009 RMK A01 T01910106  RH  058%=      5-min Rain = 0
KTAS 270418Z 30018KT 19/11 A301 RMK A01 T01900106  RH  058%=      5-min Rain = 0
KTAS 270419Z 30013KT 19/11 A301 RMK A01 T01910106  RH  058%=      5-min Rain = 0
KTAS 270420Z 29013G20KT 19/11 A3011 RMK A01 T01920108  RH  058%=      5-min Rain = 0
KTAS 270421Z 30017KT 19/11 A3011 RMK A01 T01920109  RH  058%=      5-min Rain = 0
KTAS 270422Z 29014KT 19/11 A3011 RMK A01 T01930110  RH  059%=      5-min Rain = 0
KTAS 270423Z 29013KT 19/11 A301 RMK A01 T01930110  RH  059%=      5-min Rain = 0
KTAS 270424Z 28009KT 19/11 A301 RMK A01 T01930111  RH  059%=      5-min Rain = 0
KTAS 270425Z 27007KT 19/11 A3009 RMK A01 T01930111  RH  059%=      5-min Rain = 0
KTAS 270426Z 26006KT 19/11 A3009 RMK A01 T01930111  RH  059%=      5-min Rain = 0
KTAS 270427Z 26005KT 19/11 A3008 RMK A01 T01930110  RH  059%=      5-min Rain = 0
KTAS 270428Z 26005KT 19/11 A3008 RMK A01 T01930110  RH  059%=      5-min Rain = 0
KTAS 270429Z 27006KT 19/11 A3008 RMK A01 T01920110  RH  059%=      5-min Rain = 0
KTAS 270430Z 28007KT 19/11 A3008 RMK A01 T01910111  RH  060%=      5-min Rain = 0
KTAS 270431Z 28008KT 19/11 A3009 RMK A01 T01900111  RH  060%=      5-min Rain = 0
KTAS 270432Z 27009KT 19/11 A3009 RMK A01 T01870111  RH  061%=      5-min Rain = 0
KTAS 270433Z 28009KT 19/11 A3009 RMK A01 T01870111  RH  061%=      5-min Rain = 0
KTAS 270434Z 28008KT 19/11 A3009 RMK A01 T01880112  RH  061%=      5-min Rain = 0
KTAS 270435Z 28008KT 19/11 A3009 RMK A01 T01870112  RH  062%=      5-min Rain = 0
KTAS 270436Z 28007KT 19/11 A3009 RMK A01 T01860112  RH  062%=      5-min Rain = 0
KTAS 270437Z 27006KT 19/11 A3009 RMK A01 T01850112  RH  063%=      5-min Rain = 0
KTAS 270438Z 26005KT 18/11 A3009 RMK A01 T01840112  RH  063%=      5-min Rain = 0
KTAS 270439Z 25005KT 19/11 A3009 RMK A01 T01850113  RH  063%=      5-min Rain = 0
KTAS 270440Z 26005KT 18/11 A3009 RMK A01 T01840113  RH  063%=      5-min Rain = 0
KTAS 270441Z 27005KT 18/11 A3009 RMK A01 T01830113  RH  063%=      5-min Rain = 0
KTAS 270442Z 27006KT 18/11 A3009 RMK A01 T01830113  RH  064%=      5-min Rain = 0
KTAS 270443Z 27006KT 18/11 A3009 RMK A01 T01820113  RH  064%=      5-min Rain = 0
KTAS 270444Z 27006KT 18/11 A3009 RMK A01 T01810113  RH  064%=      5-min Rain = 0
KTAS 270445Z 26006KT 18/11 A3009 RMK A01 T01800113  RH  065%=      5-min Rain = 0
KTAS 270446Z 25006KT 18/11 A3009 RMK A01 T01800113  RH  065%=      5-min Rain = 0
KTAS 270447Z 25006KT 18/11 A3009 RMK A01 T01800113  RH  065%=      5-min Rain = 0
KTAS 270448Z 25006KT 18/11 A3008 RMK A01 T01790113  RH  065%=      5-min Rain = 0
KTAS 270449Z 25006KT 18/11 A3008 RMK A01 T01780113  RH  066%=      5-min Rain = 0
KTAS 270450Z 25006KT 18/11 A3008 RMK A01 T01780113  RH  066%=      5-min Rain = 0
KTAS 270451Z 25006KT 18/11 A3008 RMK A01 T01770114  RH  066%=      5-min Rain = 0
KTAS 270452Z 25006KT 18/11 A3008 RMK A01 T01760114  RH  067%=      5-min Rain = 0
KTAS 270453Z 25006KT 18/11 A3008 RMK A01 T01760114  RH  067%=      5-min Rain = 0
KTAS 270454Z 25007KT 18/11 A3008 RMK A01 T01760114  RH  067%=      5-min Rain = 0
KTAS 270455Z 25006KT 18/11 A3008 RMK A01 T01760114  RH  067%=      5-min Rain = 0
KTAS 270456Z 25006KT 18/12 A3008 RMK A01 T01760115  RH  067%=      5-min Rain = 0
KTAS 270457Z 25007KT 18/12 A3008 RMK A01 T01760115  RH  067%=      5-min Rain = 0
KTAS 270458Z 25007KT 18/12 A3008 RMK A01 T01770115  RH  067%=      5-min Rain = 0
KTAS 270459Z 25006KT 18/12 A3008 RMK A01 T01780116  RH  067%=      5-min Rain = 0

Page generated in 0.0907 seconds.